<?xml version="1.0" encoding="UTF-8" standalone="no" ?>
<gpx xmlns="http://www.topografix.com/GPX/1/1" xmlns:xsi="http://www.w3.org/2001/XMLSchema-instance" xsi:schemaLocation="http://www.topografix.com/GPX/1/1 http://www.topografix.com/GPX/1/1/gpx.xsd" version="1.1" creator="VisuGPX - https://www.visugpx.com">
  <metadata>
    <name>chameroy 12 km</name>
    <desc><![CDATA[philman 52]]></desc>
  </metadata>
  <trk>
    <name><![CDATA[Tracé actuel: 23 MAR 2021 14:04]]></name>
    <extensions>
      <line xmlns="http://www.topografix.com/GPX/gpx_style/0/2">
        <color>0000FF</color>
        <width>4</width>
      </line>
    </extensions>
    <trkseg>
      <trkpt lat="47.8343" lon="5.10705">
        <ele>444.98</ele>
        <time>2021-03-23T13:04:57Z</time>
      </trkpt>
      <trkpt lat="47.8343" lon="5.10705">
        <ele>444.98</ele>
        <time>2021-03-23T13:04:58Z</time>
      </trkpt>
      <trkpt lat="47.8344" lon="5.10701">
        <ele>444.99</ele>
        <time>2021-03-23T13:05:09Z</time>
      </trkpt>
      <trkpt lat="47.83458" lon="5.10695">
        <ele>444.65</ele>
        <time>2021-03-23T13:05:26Z</time>
      </trkpt>
      <trkpt lat="47.83475" lon="5.10685">
        <ele>444.56</ele>
        <time>2021-03-23T13:05:42Z</time>
      </trkpt>
      <trkpt lat="47.83489" lon="5.10678">
        <ele>444.16</ele>
        <time>2021-03-23T13:05:54Z</time>
      </trkpt>
      <trkpt lat="47.83508" lon="5.10665">
        <ele>444.01</ele>
        <time>2021-03-23T13:06:09Z</time>
      </trkpt>
      <trkpt lat="47.83527" lon="5.10653">
        <ele>443.95</ele>
        <time>2021-03-23T13:06:23Z</time>
      </trkpt>
      <trkpt lat="47.83545" lon="5.10638">
        <ele>444.19</ele>
        <time>2021-03-23T13:06:40Z</time>
      </trkpt>
      <trkpt lat="47.83551" lon="5.10635">
        <ele>443.85</ele>
        <time>2021-03-23T13:06:46Z</time>
      </trkpt>
      <trkpt lat="47.83553" lon="5.10633">
        <ele>443.78</ele>
        <time>2021-03-23T13:06:48Z</time>
      </trkpt>
      <trkpt lat="47.83574" lon="5.1062">
        <ele>444.19</ele>
        <time>2021-03-23T13:07:06Z</time>
      </trkpt>
      <trkpt lat="47.83589" lon="5.10606">
        <ele>444.39</ele>
        <time>2021-03-23T13:07:18Z</time>
      </trkpt>
      <trkpt lat="47.83605" lon="5.10591">
        <ele>444.06</ele>
        <time>2021-03-23T13:07:31Z</time>
      </trkpt>
      <trkpt lat="47.83622" lon="5.10571">
        <ele>444.11</ele>
        <time>2021-03-23T13:07:48Z</time>
      </trkpt>
      <trkpt lat="47.8364" lon="5.10555">
        <ele>443.98</ele>
        <time>2021-03-23T13:08:03Z</time>
      </trkpt>
      <trkpt lat="47.83655" lon="5.10539">
        <ele>444.25</ele>
        <time>2021-03-23T13:08:18Z</time>
      </trkpt>
      <trkpt lat="47.83667" lon="5.10525">
        <ele>445.03</ele>
        <time>2021-03-23T13:08:31Z</time>
      </trkpt>
      <trkpt lat="47.83668" lon="5.10524">
        <ele>445.08</ele>
        <time>2021-03-23T13:08:32Z</time>
      </trkpt>
      <trkpt lat="47.83672" lon="5.1052">
        <ele>445.17</ele>
        <time>2021-03-23T13:08:35Z</time>
      </trkpt>
      <trkpt lat="47.83685" lon="5.10505">
        <ele>445.11</ele>
        <time>2021-03-23T13:08:46Z</time>
      </trkpt>
      <trkpt lat="47.83688" lon="5.10501">
        <ele>445.12</ele>
        <time>2021-03-23T13:08:49Z</time>
      </trkpt>
      <trkpt lat="47.83706" lon="5.10492">
        <ele>446.16</ele>
        <time>2021-03-23T13:09:03Z</time>
      </trkpt>
      <trkpt lat="47.83729" lon="5.10488">
        <ele>446.78</ele>
        <time>2021-03-23T13:09:18Z</time>
      </trkpt>
      <trkpt lat="47.83746" lon="5.10487">
        <ele>447.32</ele>
        <time>2021-03-23T13:09:33Z</time>
      </trkpt>
      <trkpt lat="47.83755" lon="5.10486">
        <ele>447.57</ele>
        <time>2021-03-23T13:09:39Z</time>
      </trkpt>
      <trkpt lat="47.83773" lon="5.10486">
        <ele>447.91</ele>
        <time>2021-03-23T13:09:52Z</time>
      </trkpt>
      <trkpt lat="47.83795" lon="5.10485">
        <ele>448.6</ele>
        <time>2021-03-23T13:10:08Z</time>
      </trkpt>
      <trkpt lat="47.83818" lon="5.10482">
        <ele>448.87</ele>
        <time>2021-03-23T13:10:26Z</time>
      </trkpt>
      <trkpt lat="47.83839" lon="5.10477">
        <ele>449</ele>
        <time>2021-03-23T13:10:41Z</time>
      </trkpt>
      <trkpt lat="47.83863" lon="5.10467">
        <ele>449.13</ele>
        <time>2021-03-23T13:10:59Z</time>
      </trkpt>
      <trkpt lat="47.8389" lon="5.10457">
        <ele>448.83</ele>
        <time>2021-03-23T13:11:18Z</time>
      </trkpt>
      <trkpt lat="47.83917" lon="5.10445">
        <ele>448.44</ele>
        <time>2021-03-23T13:11:36Z</time>
      </trkpt>
      <trkpt lat="47.83938" lon="5.10435">
        <ele>448.57</ele>
        <time>2021-03-23T13:11:52Z</time>
      </trkpt>
      <trkpt lat="47.83956" lon="5.10427">
        <ele>448.29</ele>
        <time>2021-03-23T13:12:06Z</time>
      </trkpt>
      <trkpt lat="47.83964" lon="5.10425">
        <ele>447.79</ele>
        <time>2021-03-23T13:12:18Z</time>
      </trkpt>
      <trkpt lat="47.83969" lon="5.10424">
        <ele>447.82</ele>
        <time>2021-03-23T13:12:29Z</time>
      </trkpt>
      <trkpt lat="47.83979" lon="5.1042">
        <ele>447.61</ele>
        <time>2021-03-23T13:12:37Z</time>
      </trkpt>
      <trkpt lat="47.84001" lon="5.10408">
        <ele>446.91</ele>
        <time>2021-03-23T13:12:54Z</time>
      </trkpt>
      <trkpt lat="47.84019" lon="5.10395">
        <ele>446.48</ele>
        <time>2021-03-23T13:13:07Z</time>
      </trkpt>
      <trkpt lat="47.84028" lon="5.10387">
        <ele>446.2</ele>
        <time>2021-03-23T13:13:17Z</time>
      </trkpt>
      <trkpt lat="47.84045" lon="5.10369">
        <ele>445.5</ele>
        <time>2021-03-23T13:13:32Z</time>
      </trkpt>
      <trkpt lat="47.84048" lon="5.10367">
        <ele>445.43</ele>
        <time>2021-03-23T13:13:34Z</time>
      </trkpt>
      <trkpt lat="47.84071" lon="5.1036">
        <ele>445.07</ele>
        <time>2021-03-23T13:13:48Z</time>
      </trkpt>
      <trkpt lat="47.8409" lon="5.10372">
        <ele>444.4</ele>
        <time>2021-03-23T13:14:02Z</time>
      </trkpt>
      <trkpt lat="47.84107" lon="5.1039">
        <ele>443.43</ele>
        <time>2021-03-23T13:14:17Z</time>
      </trkpt>
      <trkpt lat="47.84121" lon="5.10406">
        <ele>443.02</ele>
        <time>2021-03-23T13:14:30Z</time>
      </trkpt>
      <trkpt lat="47.84138" lon="5.10421">
        <ele>442.15</ele>
        <time>2021-03-23T13:14:44Z</time>
      </trkpt>
      <trkpt lat="47.84144" lon="5.10427">
        <ele>441.64</ele>
        <time>2021-03-23T13:14:51Z</time>
      </trkpt>
      <trkpt lat="47.84149" lon="5.10432">
        <ele>441.31</ele>
        <time>2021-03-23T13:14:55Z</time>
      </trkpt>
      <trkpt lat="47.84167" lon="5.10455">
        <ele>438.92</ele>
        <time>2021-03-23T13:15:12Z</time>
      </trkpt>
      <trkpt lat="47.84169" lon="5.10458">
        <ele>438.58</ele>
        <time>2021-03-23T13:15:14Z</time>
      </trkpt>
      <trkpt lat="47.84171" lon="5.10463">
        <ele>438.09</ele>
        <time>2021-03-23T13:15:17Z</time>
      </trkpt>
      <trkpt lat="47.84177" lon="5.10471">
        <ele>437.4</ele>
        <time>2021-03-23T13:15:22Z</time>
      </trkpt>
      <trkpt lat="47.84192" lon="5.10496">
        <ele>435.21</ele>
        <time>2021-03-23T13:15:38Z</time>
      </trkpt>
      <trkpt lat="47.8421" lon="5.10518">
        <ele>433.68</ele>
        <time>2021-03-23T13:15:53Z</time>
      </trkpt>
      <trkpt lat="47.84225" lon="5.10527">
        <ele>431.61</ele>
        <time>2021-03-23T13:16:06Z</time>
      </trkpt>
      <trkpt lat="47.8424" lon="5.10529">
        <ele>429.71</ele>
        <time>2021-03-23T13:16:20Z</time>
      </trkpt>
      <trkpt lat="47.84265" lon="5.10528">
        <ele>426.69</ele>
        <time>2021-03-23T13:16:40Z</time>
      </trkpt>
      <trkpt lat="47.84284" lon="5.10527">
        <ele>424.33</ele>
        <time>2021-03-23T13:16:53Z</time>
      </trkpt>
      <trkpt lat="47.84309" lon="5.10517">
        <ele>422.87</ele>
        <time>2021-03-23T13:17:12Z</time>
      </trkpt>
      <trkpt lat="47.84328" lon="5.10503">
        <ele>421.81</ele>
        <time>2021-03-23T13:17:27Z</time>
      </trkpt>
      <trkpt lat="47.8435" lon="5.10485">
        <ele>420.65</ele>
        <time>2021-03-23T13:17:46Z</time>
      </trkpt>
      <trkpt lat="47.84375" lon="5.10464">
        <ele>419.79</ele>
        <time>2021-03-23T13:18:06Z</time>
      </trkpt>
      <trkpt lat="47.84378" lon="5.10462">
        <ele>419.79</ele>
        <time>2021-03-23T13:18:08Z</time>
      </trkpt>
      <trkpt lat="47.84408" lon="5.10458">
        <ele>419.45</ele>
        <time>2021-03-23T13:18:29Z</time>
      </trkpt>
      <trkpt lat="47.84431" lon="5.10459">
        <ele>420.76</ele>
        <time>2021-03-23T13:18:42Z</time>
      </trkpt>
      <trkpt lat="47.84454" lon="5.10463">
        <ele>422.05</ele>
        <time>2021-03-23T13:18:56Z</time>
      </trkpt>
      <trkpt lat="47.84475" lon="5.10475">
        <ele>422.03</ele>
        <time>2021-03-23T13:19:10Z</time>
      </trkpt>
      <trkpt lat="47.84496" lon="5.10486">
        <ele>421.54</ele>
        <time>2021-03-23T13:19:25Z</time>
      </trkpt>
      <trkpt lat="47.84517" lon="5.10497">
        <ele>421.39</ele>
        <time>2021-03-23T13:19:39Z</time>
      </trkpt>
      <trkpt lat="47.84528" lon="5.10504">
        <ele>421.53</ele>
        <time>2021-03-23T13:19:48Z</time>
      </trkpt>
      <trkpt lat="47.84542" lon="5.10512">
        <ele>422.12</ele>
        <time>2021-03-23T13:20:01Z</time>
      </trkpt>
      <trkpt lat="47.84558" lon="5.1052">
        <ele>421.94</ele>
        <time>2021-03-23T13:20:14Z</time>
      </trkpt>
      <trkpt lat="47.84571" lon="5.10527">
        <ele>422.14</ele>
        <time>2021-03-23T13:20:22Z</time>
      </trkpt>
      <trkpt lat="47.84583" lon="5.10535">
        <ele>421.99</ele>
        <time>2021-03-23T13:20:32Z</time>
      </trkpt>
      <trkpt lat="47.84591" lon="5.10539">
        <ele>422.02</ele>
        <time>2021-03-23T13:20:37Z</time>
      </trkpt>
      <trkpt lat="47.84608" lon="5.10545">
        <ele>422.29</ele>
        <time>2021-03-23T13:20:48Z</time>
      </trkpt>
      <trkpt lat="47.84625" lon="5.10554">
        <ele>422.53</ele>
        <time>2021-03-23T13:21:01Z</time>
      </trkpt>
      <trkpt lat="47.84636" lon="5.10556">
        <ele>422.82</ele>
        <time>2021-03-23T13:21:09Z</time>
      </trkpt>
      <trkpt lat="47.84655" lon="5.10564">
        <ele>422.93</ele>
        <time>2021-03-23T13:21:24Z</time>
      </trkpt>
      <trkpt lat="47.84672" lon="5.10572">
        <ele>422.81</ele>
        <time>2021-03-23T13:21:37Z</time>
      </trkpt>
      <trkpt lat="47.84687" lon="5.10581">
        <ele>422.59</ele>
        <time>2021-03-23T13:21:50Z</time>
      </trkpt>
      <trkpt lat="47.84704" lon="5.10589">
        <ele>422.6</ele>
        <time>2021-03-23T13:22:02Z</time>
      </trkpt>
      <trkpt lat="47.84706" lon="5.10591">
        <ele>422.58</ele>
        <time>2021-03-23T13:22:04Z</time>
      </trkpt>
      <trkpt lat="47.84715" lon="5.10594">
        <ele>422.46</ele>
        <time>2021-03-23T13:22:10Z</time>
      </trkpt>
      <trkpt lat="47.84733" lon="5.10606">
        <ele>422.19</ele>
        <time>2021-03-23T13:22:25Z</time>
      </trkpt>
      <trkpt lat="47.84749" lon="5.10617">
        <ele>422.16</ele>
        <time>2021-03-23T13:22:38Z</time>
      </trkpt>
      <trkpt lat="47.84765" lon="5.10627">
        <ele>422.32</ele>
        <time>2021-03-23T13:22:52Z</time>
      </trkpt>
      <trkpt lat="47.84779" lon="5.10636">
        <ele>422.08</ele>
        <time>2021-03-23T13:23:03Z</time>
      </trkpt>
      <trkpt lat="47.8479" lon="5.10643">
        <ele>421.88</ele>
        <time>2021-03-23T13:23:12Z</time>
      </trkpt>
      <trkpt lat="47.84808" lon="5.10653">
        <ele>421.7</ele>
        <time>2021-03-23T13:23:26Z</time>
      </trkpt>
      <trkpt lat="47.84825" lon="5.10663">
        <ele>421.74</ele>
        <time>2021-03-23T13:23:40Z</time>
      </trkpt>
      <trkpt lat="47.84834" lon="5.1067">
        <ele>421.7</ele>
        <time>2021-03-23T13:23:48Z</time>
      </trkpt>
      <trkpt lat="47.84849" lon="5.10681">
        <ele>421.43</ele>
        <time>2021-03-23T13:24:00Z</time>
      </trkpt>
      <trkpt lat="47.84861" lon="5.1069">
        <ele>421.5</ele>
        <time>2021-03-23T13:24:10Z</time>
      </trkpt>
      <trkpt lat="47.84866" lon="5.10693">
        <ele>421.62</ele>
        <time>2021-03-23T13:24:14Z</time>
      </trkpt>
      <trkpt lat="47.84886" lon="5.10703">
        <ele>421.76</ele>
        <time>2021-03-23T13:24:30Z</time>
      </trkpt>
      <trkpt lat="47.84887" lon="5.10703">
        <ele>421.81</ele>
        <time>2021-03-23T13:24:31Z</time>
      </trkpt>
      <trkpt lat="47.84899" lon="5.10706">
        <ele>421.73</ele>
        <time>2021-03-23T13:24:40Z</time>
      </trkpt>
      <trkpt lat="47.84914" lon="5.10711">
        <ele>421.93</ele>
        <time>2021-03-23T13:24:53Z</time>
      </trkpt>
      <trkpt lat="47.84919" lon="5.10713">
        <ele>422.27</ele>
        <time>2021-03-23T13:24:57Z</time>
      </trkpt>
      <trkpt lat="47.84941" lon="5.10717">
        <ele>423.03</ele>
        <time>2021-03-23T13:25:13Z</time>
      </trkpt>
      <trkpt lat="47.84956" lon="5.10722">
        <ele>423.53</ele>
        <time>2021-03-23T13:25:26Z</time>
      </trkpt>
      <trkpt lat="47.8496" lon="5.10724">
        <ele>423.73</ele>
        <time>2021-03-23T13:25:29Z</time>
      </trkpt>
      <trkpt lat="47.84976" lon="5.10727">
        <ele>424.4</ele>
        <time>2021-03-23T13:25:41Z</time>
      </trkpt>
      <trkpt lat="47.84986" lon="5.10728">
        <ele>424.79</ele>
        <time>2021-03-23T13:25:47Z</time>
      </trkpt>
      <trkpt lat="47.85003" lon="5.10731">
        <ele>425.12</ele>
        <time>2021-03-23T13:26:01Z</time>
      </trkpt>
      <trkpt lat="47.85015" lon="5.10733">
        <ele>425.48</ele>
        <time>2021-03-23T13:26:11Z</time>
      </trkpt>
      <trkpt lat="47.85021" lon="5.10734">
        <ele>425.65</ele>
        <time>2021-03-23T13:26:15Z</time>
      </trkpt>
      <trkpt lat="47.85028" lon="5.10734">
        <ele>425.77</ele>
        <time>2021-03-23T13:26:21Z</time>
      </trkpt>
      <trkpt lat="47.85032" lon="5.10736">
        <ele>425.85</ele>
        <time>2021-03-23T13:26:24Z</time>
      </trkpt>
      <trkpt lat="47.85052" lon="5.10738">
        <ele>426.29</ele>
        <time>2021-03-23T13:26:38Z</time>
      </trkpt>
      <trkpt lat="47.85074" lon="5.10742">
        <ele>426.77</ele>
        <time>2021-03-23T13:26:53Z</time>
      </trkpt>
      <trkpt lat="47.85091" lon="5.10743">
        <ele>427.11</ele>
        <time>2021-03-23T13:27:07Z</time>
      </trkpt>
      <trkpt lat="47.85104" lon="5.10745">
        <ele>426.88</ele>
        <time>2021-03-23T13:27:18Z</time>
      </trkpt>
      <trkpt lat="47.85122" lon="5.10748">
        <ele>426.46</ele>
        <time>2021-03-23T13:27:33Z</time>
      </trkpt>
      <trkpt lat="47.85146" lon="5.10753">
        <ele>426.1</ele>
        <time>2021-03-23T13:27:54Z</time>
      </trkpt>
      <trkpt lat="47.85166" lon="5.10759">
        <ele>426.08</ele>
        <time>2021-03-23T13:28:08Z</time>
      </trkpt>
      <trkpt lat="47.85171" lon="5.1076">
        <ele>426.28</ele>
        <time>2021-03-23T13:28:13Z</time>
      </trkpt>
      <trkpt lat="47.85193" lon="5.10766">
        <ele>427.19</ele>
        <time>2021-03-23T13:28:28Z</time>
      </trkpt>
      <trkpt lat="47.85214" lon="5.1077">
        <ele>427.89</ele>
        <time>2021-03-23T13:28:42Z</time>
      </trkpt>
      <trkpt lat="47.85232" lon="5.10775">
        <ele>428.36</ele>
        <time>2021-03-23T13:28:54Z</time>
      </trkpt>
      <trkpt lat="47.85254" lon="5.10785">
        <ele>428.54</ele>
        <time>2021-03-23T13:29:09Z</time>
      </trkpt>
      <trkpt lat="47.8527" lon="5.10794">
        <ele>429.26</ele>
        <time>2021-03-23T13:29:23Z</time>
      </trkpt>
      <trkpt lat="47.85286" lon="5.10806">
        <ele>430.33</ele>
        <time>2021-03-23T13:29:36Z</time>
      </trkpt>
      <trkpt lat="47.85296" lon="5.10819">
        <ele>430.36</ele>
        <time>2021-03-23T13:29:46Z</time>
      </trkpt>
      <trkpt lat="47.85309" lon="5.10837">
        <ele>430.16</ele>
        <time>2021-03-23T13:30:00Z</time>
      </trkpt>
      <trkpt lat="47.85311" lon="5.1084">
        <ele>430.28</ele>
        <time>2021-03-23T13:30:02Z</time>
      </trkpt>
      <trkpt lat="47.85322" lon="5.10852">
        <ele>430.44</ele>
        <time>2021-03-23T13:30:11Z</time>
      </trkpt>
      <trkpt lat="47.85337" lon="5.10873">
        <ele>430.36</ele>
        <time>2021-03-23T13:30:27Z</time>
      </trkpt>
      <trkpt lat="47.85338" lon="5.10874">
        <ele>430.38</ele>
        <time>2021-03-23T13:30:28Z</time>
      </trkpt>
      <trkpt lat="47.85351" lon="5.10897">
        <ele>430.61</ele>
        <time>2021-03-23T13:30:43Z</time>
      </trkpt>
      <trkpt lat="47.85352" lon="5.109">
        <ele>430.52</ele>
        <time>2021-03-23T13:30:45Z</time>
      </trkpt>
      <trkpt lat="47.85366" lon="5.10926">
        <ele>429.92</ele>
        <time>2021-03-23T13:31:00Z</time>
      </trkpt>
      <trkpt lat="47.8538" lon="5.10948">
        <ele>429.69</ele>
        <time>2021-03-23T13:31:14Z</time>
      </trkpt>
      <trkpt lat="47.85395" lon="5.10971">
        <ele>429.8</ele>
        <time>2021-03-23T13:31:30Z</time>
      </trkpt>
      <trkpt lat="47.85407" lon="5.10989">
        <ele>429.74</ele>
        <time>2021-03-23T13:31:43Z</time>
      </trkpt>
      <trkpt lat="47.85418" lon="5.1101">
        <ele>429.69</ele>
        <time>2021-03-23T13:31:56Z</time>
      </trkpt>
      <trkpt lat="47.85421" lon="5.11015">
        <ele>429.69</ele>
        <time>2021-03-23T13:31:59Z</time>
      </trkpt>
      <trkpt lat="47.85435" lon="5.11037">
        <ele>429.81</ele>
        <time>2021-03-23T13:32:14Z</time>
      </trkpt>
      <trkpt lat="47.85449" lon="5.11059">
        <ele>429.74</ele>
        <time>2021-03-23T13:32:29Z</time>
      </trkpt>
      <trkpt lat="47.8546" lon="5.11079">
        <ele>429.33</ele>
        <time>2021-03-23T13:32:42Z</time>
      </trkpt>
      <trkpt lat="47.85476" lon="5.11105">
        <ele>428.97</ele>
        <time>2021-03-23T13:32:58Z</time>
      </trkpt>
      <trkpt lat="47.85492" lon="5.1113">
        <ele>428.31</ele>
        <time>2021-03-23T13:33:14Z</time>
      </trkpt>
      <trkpt lat="47.85508" lon="5.1115">
        <ele>428.19</ele>
        <time>2021-03-23T13:33:30Z</time>
      </trkpt>
      <trkpt lat="47.85514" lon="5.11158">
        <ele>428.18</ele>
        <time>2021-03-23T13:33:37Z</time>
      </trkpt>
      <trkpt lat="47.8553" lon="5.11171">
        <ele>428.31</ele>
        <time>2021-03-23T13:33:51Z</time>
      </trkpt>
      <trkpt lat="47.85546" lon="5.11184">
        <ele>428.39</ele>
        <time>2021-03-23T13:34:05Z</time>
      </trkpt>
      <trkpt lat="47.85555" lon="5.1119">
        <ele>427.87</ele>
        <time>2021-03-23T13:34:14Z</time>
      </trkpt>
      <trkpt lat="47.85576" lon="5.112">
        <ele>428.51</ele>
        <time>2021-03-23T13:34:30Z</time>
      </trkpt>
      <trkpt lat="47.856" lon="5.11208">
        <ele>429.6</ele>
        <time>2021-03-23T13:34:47Z</time>
      </trkpt>
      <trkpt lat="47.85625" lon="5.11214">
        <ele>430.47</ele>
        <time>2021-03-23T13:35:04Z</time>
      </trkpt>
      <trkpt lat="47.85639" lon="5.11215">
        <ele>430.54</ele>
        <time>2021-03-23T13:35:18Z</time>
      </trkpt>
      <trkpt lat="47.85662" lon="5.11211">
        <ele>431.1</ele>
        <time>2021-03-23T13:35:35Z</time>
      </trkpt>
      <trkpt lat="47.85682" lon="5.11209">
        <ele>431.35</ele>
        <time>2021-03-23T13:35:49Z</time>
      </trkpt>
      <trkpt lat="47.85699" lon="5.11205">
        <ele>431.27</ele>
        <time>2021-03-23T13:36:03Z</time>
      </trkpt>
      <trkpt lat="47.85729" lon="5.11191">
        <ele>431.3</ele>
        <time>2021-03-23T13:36:28Z</time>
      </trkpt>
      <trkpt lat="47.8575" lon="5.11172">
        <ele>431.53</ele>
        <time>2021-03-23T13:36:46Z</time>
      </trkpt>
      <trkpt lat="47.85771" lon="5.11143">
        <ele>431.18</ele>
        <time>2021-03-23T13:37:09Z</time>
      </trkpt>
      <trkpt lat="47.85787" lon="5.11117">
        <ele>431.25</ele>
        <time>2021-03-23T13:37:26Z</time>
      </trkpt>
      <trkpt lat="47.8579" lon="5.11108">
        <ele>431.26</ele>
        <time>2021-03-23T13:37:32Z</time>
      </trkpt>
      <trkpt lat="47.85793" lon="5.11103">
        <ele>431.21</ele>
        <time>2021-03-23T13:37:35Z</time>
      </trkpt>
      <trkpt lat="47.85795" lon="5.1109">
        <ele>431.32</ele>
        <time>2021-03-23T13:37:42Z</time>
      </trkpt>
      <trkpt lat="47.85796" lon="5.11083">
        <ele>431.4</ele>
        <time>2021-03-23T13:37:47Z</time>
      </trkpt>
      <trkpt lat="47.85799" lon="5.11071">
        <ele>431.53</ele>
        <time>2021-03-23T13:37:54Z</time>
      </trkpt>
      <trkpt lat="47.85811" lon="5.11043">
        <ele>431.96</ele>
        <time>2021-03-23T13:38:07Z</time>
      </trkpt>
      <trkpt lat="47.85817" lon="5.11011">
        <ele>431.74</ele>
        <time>2021-03-23T13:38:23Z</time>
      </trkpt>
      <trkpt lat="47.85818" lon="5.11007">
        <ele>431.77</ele>
        <time>2021-03-23T13:38:25Z</time>
      </trkpt>
      <trkpt lat="47.85823" lon="5.10987">
        <ele>431.57</ele>
        <time>2021-03-23T13:38:35Z</time>
      </trkpt>
      <trkpt lat="47.85836" lon="5.10956">
        <ele>431.54</ele>
        <time>2021-03-23T13:38:51Z</time>
      </trkpt>
      <trkpt lat="47.85841" lon="5.10937">
        <ele>431.54</ele>
        <time>2021-03-23T13:39:02Z</time>
      </trkpt>
      <trkpt lat="47.85842" lon="5.10934">
        <ele>431.49</ele>
        <time>2021-03-23T13:39:04Z</time>
      </trkpt>
      <trkpt lat="47.85844" lon="5.10923">
        <ele>431.36</ele>
        <time>2021-03-23T13:39:10Z</time>
      </trkpt>
      <trkpt lat="47.85851" lon="5.10885">
        <ele>431.19</ele>
        <time>2021-03-23T13:39:27Z</time>
      </trkpt>
      <trkpt lat="47.85857" lon="5.10859">
        <ele>431.19</ele>
        <time>2021-03-23T13:39:41Z</time>
      </trkpt>
      <trkpt lat="47.85866" lon="5.10834">
        <ele>431.03</ele>
        <time>2021-03-23T13:39:55Z</time>
      </trkpt>
      <trkpt lat="47.85868" lon="5.10828">
        <ele>431.02</ele>
        <time>2021-03-23T13:39:58Z</time>
      </trkpt>
      <trkpt lat="47.85874" lon="5.10798">
        <ele>431.02</ele>
        <time>2021-03-23T13:40:13Z</time>
      </trkpt>
      <trkpt lat="47.85876" lon="5.10771">
        <ele>430.71</ele>
        <time>2021-03-23T13:40:29Z</time>
      </trkpt>
      <trkpt lat="47.85878" lon="5.10743">
        <ele>430.26</ele>
        <time>2021-03-23T13:40:43Z</time>
      </trkpt>
      <trkpt lat="47.85875" lon="5.10719">
        <ele>429.96</ele>
        <time>2021-03-23T13:40:54Z</time>
      </trkpt>
      <trkpt lat="47.85869" lon="5.10693">
        <ele>429.4</ele>
        <time>2021-03-23T13:41:07Z</time>
      </trkpt>
      <trkpt lat="47.85865" lon="5.10668">
        <ele>428.83</ele>
        <time>2021-03-23T13:41:20Z</time>
      </trkpt>
      <trkpt lat="47.85865" lon="5.10638">
        <ele>427.48</ele>
        <time>2021-03-23T13:41:33Z</time>
      </trkpt>
      <trkpt lat="47.85865" lon="5.10627">
        <ele>426.61</ele>
        <time>2021-03-23T13:41:39Z</time>
      </trkpt>
      <trkpt lat="47.85863" lon="5.10611">
        <ele>425.6</ele>
        <time>2021-03-23T13:41:46Z</time>
      </trkpt>
      <trkpt lat="47.85862" lon="5.10606">
        <ele>425.41</ele>
        <time>2021-03-23T13:41:48Z</time>
      </trkpt>
      <trkpt lat="47.85861" lon="5.10601">
        <ele>425.11</ele>
        <time>2021-03-23T13:41:50Z</time>
      </trkpt>
      <trkpt lat="47.85855" lon="5.10571">
        <ele>423.44</ele>
        <time>2021-03-23T13:42:04Z</time>
      </trkpt>
      <trkpt lat="47.85855" lon="5.10569">
        <ele>423.35</ele>
        <time>2021-03-23T13:42:05Z</time>
      </trkpt>
      <trkpt lat="47.85852" lon="5.10559">
        <ele>422.96</ele>
        <time>2021-03-23T13:42:10Z</time>
      </trkpt>
      <trkpt lat="47.85848" lon="5.10537">
        <ele>422.16</ele>
        <time>2021-03-23T13:42:22Z</time>
      </trkpt>
      <trkpt lat="47.85845" lon="5.1053">
        <ele>422.15</ele>
        <time>2021-03-23T13:42:26Z</time>
      </trkpt>
      <trkpt lat="47.85836" lon="5.10506">
        <ele>422.45</ele>
        <time>2021-03-23T13:42:40Z</time>
      </trkpt>
      <trkpt lat="47.85834" lon="5.10501">
        <ele>422.5</ele>
        <time>2021-03-23T13:42:43Z</time>
      </trkpt>
      <trkpt lat="47.85833" lon="5.10496">
        <ele>422.26</ele>
        <time>2021-03-23T13:42:46Z</time>
      </trkpt>
      <trkpt lat="47.85826" lon="5.10482">
        <ele>421.93</ele>
        <time>2021-03-23T13:42:52Z</time>
      </trkpt>
      <trkpt lat="47.85815" lon="5.10457">
        <ele>421.96</ele>
        <time>2021-03-23T13:43:05Z</time>
      </trkpt>
      <trkpt lat="47.85808" lon="5.10442">
        <ele>422.12</ele>
        <time>2021-03-23T13:43:15Z</time>
      </trkpt>
      <trkpt lat="47.85801" lon="5.1043">
        <ele>422.26</ele>
        <time>2021-03-23T13:43:22Z</time>
      </trkpt>
      <trkpt lat="47.85799" lon="5.1042">
        <ele>422.33</ele>
        <time>2021-03-23T13:43:28Z</time>
      </trkpt>
      <trkpt lat="47.85796" lon="5.1041">
        <ele>422.27</ele>
        <time>2021-03-23T13:43:36Z</time>
      </trkpt>
      <trkpt lat="47.8579" lon="5.104">
        <ele>422.1</ele>
        <time>2021-03-23T13:43:40Z</time>
      </trkpt>
      <trkpt lat="47.85775" lon="5.10373">
        <ele>421.64</ele>
        <time>2021-03-23T13:43:54Z</time>
      </trkpt>
      <trkpt lat="47.85775" lon="5.10371">
        <ele>421.66</ele>
        <time>2021-03-23T13:43:55Z</time>
      </trkpt>
      <trkpt lat="47.8576" lon="5.10347">
        <ele>421.62</ele>
        <time>2021-03-23T13:44:08Z</time>
      </trkpt>
      <trkpt lat="47.85758" lon="5.10341">
        <ele>421.61</ele>
        <time>2021-03-23T13:44:12Z</time>
      </trkpt>
      <trkpt lat="47.85754" lon="5.10331">
        <ele>421.33</ele>
        <time>2021-03-23T13:44:17Z</time>
      </trkpt>
      <trkpt lat="47.85759" lon="5.10317">
        <ele>419.99</ele>
        <time>2021-03-23T13:44:31Z</time>
      </trkpt>
      <trkpt lat="47.85764" lon="5.10312">
        <ele>419.86</ele>
        <time>2021-03-23T13:44:50Z</time>
      </trkpt>
      <trkpt lat="47.85773" lon="5.10317">
        <ele>419.7</ele>
        <time>2021-03-23T13:45:15Z</time>
      </trkpt>
      <trkpt lat="47.85774" lon="5.10304">
        <ele>419.2</ele>
        <time>2021-03-23T13:45:40Z</time>
      </trkpt>
      <trkpt lat="47.85773" lon="5.10296">
        <ele>418.72</ele>
        <time>2021-03-23T13:45:46Z</time>
      </trkpt>
      <trkpt lat="47.85768" lon="5.10279">
        <ele>416.93</ele>
        <time>2021-03-23T13:46:03Z</time>
      </trkpt>
      <trkpt lat="47.85768" lon="5.10278">
        <ele>416.9</ele>
        <time>2021-03-23T13:46:04Z</time>
      </trkpt>
      <trkpt lat="47.85767" lon="5.10274">
        <ele>416.86</ele>
        <time>2021-03-23T13:46:07Z</time>
      </trkpt>
      <trkpt lat="47.85762" lon="5.10269">
        <ele>416.86</ele>
        <time>2021-03-23T13:46:14Z</time>
      </trkpt>
      <trkpt lat="47.85758" lon="5.10264">
        <ele>416.82</ele>
        <time>2021-03-23T13:46:18Z</time>
      </trkpt>
      <trkpt lat="47.85754" lon="5.1026">
        <ele>416.96</ele>
        <time>2021-03-23T13:46:22Z</time>
      </trkpt>
      <trkpt lat="47.85738" lon="5.10248">
        <ele>418.01</ele>
        <time>2021-03-23T13:46:36Z</time>
      </trkpt>
      <trkpt lat="47.85729" lon="5.10243">
        <ele>418.57</ele>
        <time>2021-03-23T13:46:45Z</time>
      </trkpt>
      <trkpt lat="47.85716" lon="5.10234">
        <ele>419.3</ele>
        <time>2021-03-23T13:46:57Z</time>
      </trkpt>
      <trkpt lat="47.8571" lon="5.10231">
        <ele>419.59</ele>
        <time>2021-03-23T13:47:02Z</time>
      </trkpt>
      <trkpt lat="47.85698" lon="5.10225">
        <ele>420.22</ele>
        <time>2021-03-23T13:47:14Z</time>
      </trkpt>
      <trkpt lat="47.85695" lon="5.10221">
        <ele>420.22</ele>
        <time>2021-03-23T13:47:17Z</time>
      </trkpt>
      <trkpt lat="47.85675" lon="5.10212">
        <ele>420.51</ele>
        <time>2021-03-23T13:47:33Z</time>
      </trkpt>
      <trkpt lat="47.85656" lon="5.10206">
        <ele>420.56</ele>
        <time>2021-03-23T13:47:47Z</time>
      </trkpt>
      <trkpt lat="47.85643" lon="5.10205">
        <ele>420.73</ele>
        <time>2021-03-23T13:47:57Z</time>
      </trkpt>
      <trkpt lat="47.8562" lon="5.10207">
        <ele>420.65</ele>
        <time>2021-03-23T13:48:14Z</time>
      </trkpt>
      <trkpt lat="47.856" lon="5.10212">
        <ele>420.45</ele>
        <time>2021-03-23T13:48:28Z</time>
      </trkpt>
      <trkpt lat="47.85588" lon="5.10218">
        <ele>420.18</ele>
        <time>2021-03-23T13:48:38Z</time>
      </trkpt>
      <trkpt lat="47.85583" lon="5.10221">
        <ele>419.88</ele>
        <time>2021-03-23T13:48:42Z</time>
      </trkpt>
      <trkpt lat="47.85563" lon="5.10232">
        <ele>418.55</ele>
        <time>2021-03-23T13:48:58Z</time>
      </trkpt>
      <trkpt lat="47.85544" lon="5.10248">
        <ele>417.16</ele>
        <time>2021-03-23T13:49:14Z</time>
      </trkpt>
      <trkpt lat="47.8553" lon="5.10263">
        <ele>415.77</ele>
        <time>2021-03-23T13:49:25Z</time>
      </trkpt>
      <trkpt lat="47.85521" lon="5.10272">
        <ele>415</ele>
        <time>2021-03-23T13:49:35Z</time>
      </trkpt>
      <trkpt lat="47.85507" lon="5.10286">
        <ele>413.89</ele>
        <time>2021-03-23T13:49:48Z</time>
      </trkpt>
      <trkpt lat="47.85493" lon="5.10302">
        <ele>412.49</ele>
        <time>2021-03-23T13:50:02Z</time>
      </trkpt>
      <trkpt lat="47.85479" lon="5.1032">
        <ele>410.84</ele>
        <time>2021-03-23T13:50:17Z</time>
      </trkpt>
      <trkpt lat="47.85466" lon="5.10337">
        <ele>409.05</ele>
        <time>2021-03-23T13:50:31Z</time>
      </trkpt>
      <trkpt lat="47.85464" lon="5.1034">
        <ele>408.87</ele>
        <time>2021-03-23T13:50:33Z</time>
      </trkpt>
      <trkpt lat="47.85456" lon="5.10348">
        <ele>407.99</ele>
        <time>2021-03-23T13:50:41Z</time>
      </trkpt>
      <trkpt lat="47.85443" lon="5.10356">
        <ele>406.57</ele>
        <time>2021-03-23T13:50:52Z</time>
      </trkpt>
      <trkpt lat="47.85413" lon="5.10355">
        <ele>405.81</ele>
        <time>2021-03-23T13:51:11Z</time>
      </trkpt>
      <trkpt lat="47.85396" lon="5.10338">
        <ele>406.19</ele>
        <time>2021-03-23T13:51:24Z</time>
      </trkpt>
      <trkpt lat="47.85381" lon="5.10315">
        <ele>407.18</ele>
        <time>2021-03-23T13:51:39Z</time>
      </trkpt>
      <trkpt lat="47.85369" lon="5.10294">
        <ele>408.34</ele>
        <time>2021-03-23T13:51:52Z</time>
      </trkpt>
      <trkpt lat="47.85367" lon="5.1029">
        <ele>408.63</ele>
        <time>2021-03-23T13:51:55Z</time>
      </trkpt>
      <trkpt lat="47.85356" lon="5.10272">
        <ele>410.12</ele>
        <time>2021-03-23T13:52:08Z</time>
      </trkpt>
      <trkpt lat="47.85346" lon="5.10248">
        <ele>411.36</ele>
        <time>2021-03-23T13:52:22Z</time>
      </trkpt>
      <trkpt lat="47.85336" lon="5.10221">
        <ele>412.67</ele>
        <time>2021-03-23T13:52:36Z</time>
      </trkpt>
      <trkpt lat="47.85326" lon="5.10198">
        <ele>413.24</ele>
        <time>2021-03-23T13:52:51Z</time>
      </trkpt>
      <trkpt lat="47.8532" lon="5.10174">
        <ele>414.16</ele>
        <time>2021-03-23T13:53:08Z</time>
      </trkpt>
      <trkpt lat="47.85308" lon="5.1014">
        <ele>415.07</ele>
        <time>2021-03-23T13:53:28Z</time>
      </trkpt>
      <trkpt lat="47.85293" lon="5.10111">
        <ele>415.75</ele>
        <time>2021-03-23T13:53:47Z</time>
      </trkpt>
      <trkpt lat="47.85276" lon="5.1007">
        <ele>416.44</ele>
        <time>2021-03-23T13:54:09Z</time>
      </trkpt>
      <trkpt lat="47.85255" lon="5.10034">
        <ele>416.52</ele>
        <time>2021-03-23T13:54:31Z</time>
      </trkpt>
      <trkpt lat="47.85242" lon="5.10007">
        <ele>416.41</ele>
        <time>2021-03-23T13:54:46Z</time>
      </trkpt>
      <trkpt lat="47.85235" lon="5.09997">
        <ele>416.49</ele>
        <time>2021-03-23T13:54:53Z</time>
      </trkpt>
      <trkpt lat="47.85228" lon="5.09987">
        <ele>416.36</ele>
        <time>2021-03-23T13:54:59Z</time>
      </trkpt>
      <trkpt lat="47.85218" lon="5.09969">
        <ele>416.14</ele>
        <time>2021-03-23T13:55:12Z</time>
      </trkpt>
      <trkpt lat="47.85198" lon="5.09943">
        <ele>416.27</ele>
        <time>2021-03-23T13:55:31Z</time>
      </trkpt>
      <trkpt lat="47.8518" lon="5.09924">
        <ele>416.49</ele>
        <time>2021-03-23T13:55:47Z</time>
      </trkpt>
      <trkpt lat="47.8516" lon="5.09904">
        <ele>416.78</ele>
        <time>2021-03-23T13:56:03Z</time>
      </trkpt>
      <trkpt lat="47.85144" lon="5.0989">
        <ele>417.66</ele>
        <time>2021-03-23T13:56:16Z</time>
      </trkpt>
      <trkpt lat="47.85122" lon="5.09876">
        <ele>418.08</ele>
        <time>2021-03-23T13:56:33Z</time>
      </trkpt>
      <trkpt lat="47.85115" lon="5.09874">
        <ele>418.21</ele>
        <time>2021-03-23T13:56:37Z</time>
      </trkpt>
      <trkpt lat="47.85096" lon="5.09866">
        <ele>419.02</ele>
        <time>2021-03-23T13:56:52Z</time>
      </trkpt>
      <trkpt lat="47.85073" lon="5.09842">
        <ele>419.46</ele>
        <time>2021-03-23T13:57:13Z</time>
      </trkpt>
      <trkpt lat="47.85049" lon="5.09823">
        <ele>419.18</ele>
        <time>2021-03-23T13:57:31Z</time>
      </trkpt>
      <trkpt lat="47.85048" lon="5.09822">
        <ele>419.13</ele>
        <time>2021-03-23T13:57:32Z</time>
      </trkpt>
      <trkpt lat="47.85045" lon="5.09819">
        <ele>419.04</ele>
        <time>2021-03-23T13:57:35Z</time>
      </trkpt>
      <trkpt lat="47.85033" lon="5.09811">
        <ele>418.92</ele>
        <time>2021-03-23T13:57:46Z</time>
      </trkpt>
      <trkpt lat="47.85015" lon="5.098">
        <ele>418.12</ele>
        <time>2021-03-23T13:58:05Z</time>
      </trkpt>
      <trkpt lat="47.85006" lon="5.09797">
        <ele>417.94</ele>
        <time>2021-03-23T13:58:11Z</time>
      </trkpt>
      <trkpt lat="47.84996" lon="5.09798">
        <ele>417.48</ele>
        <time>2021-03-23T13:58:17Z</time>
      </trkpt>
      <trkpt lat="47.84973" lon="5.09784">
        <ele>416.25</ele>
        <time>2021-03-23T13:58:35Z</time>
      </trkpt>
      <trkpt lat="47.84943" lon="5.09788">
        <ele>414.66</ele>
        <time>2021-03-23T13:58:56Z</time>
      </trkpt>
      <trkpt lat="47.84914" lon="5.09776">
        <ele>413.91</ele>
        <time>2021-03-23T13:59:16Z</time>
      </trkpt>
      <trkpt lat="47.84906" lon="5.09775">
        <ele>413.77</ele>
        <time>2021-03-23T13:59:22Z</time>
      </trkpt>
      <trkpt lat="47.84897" lon="5.09776">
        <ele>413.65</ele>
        <time>2021-03-23T13:59:28Z</time>
      </trkpt>
      <trkpt lat="47.8489" lon="5.09775">
        <ele>413.19</ele>
        <time>2021-03-23T13:59:36Z</time>
      </trkpt>
      <trkpt lat="47.84887" lon="5.09779">
        <ele>413.14</ele>
        <time>2021-03-23T13:59:39Z</time>
      </trkpt>
      <trkpt lat="47.8486" lon="5.0977">
        <ele>414.31</ele>
        <time>2021-03-23T13:59:54Z</time>
      </trkpt>
      <trkpt lat="47.84845" lon="5.09741">
        <ele>416.19</ele>
        <time>2021-03-23T14:00:12Z</time>
      </trkpt>
      <trkpt lat="47.84842" lon="5.09739">
        <ele>416.28</ele>
        <time>2021-03-23T14:00:13Z</time>
      </trkpt>
      <trkpt lat="47.8484" lon="5.09738">
        <ele>416.36</ele>
        <time>2021-03-23T14:00:14Z</time>
      </trkpt>
      <trkpt lat="47.84838" lon="5.09738">
        <ele>416.44</ele>
        <time>2021-03-23T14:00:15Z</time>
      </trkpt>
      <trkpt lat="47.84835" lon="5.09737">
        <ele>416.55</ele>
        <time>2021-03-23T14:00:16Z</time>
      </trkpt>
      <trkpt lat="47.84833" lon="5.09735">
        <ele>416.66</ele>
        <time>2021-03-23T14:00:17Z</time>
      </trkpt>
      <trkpt lat="47.8483" lon="5.09734">
        <ele>416.74</ele>
        <time>2021-03-23T14:00:18Z</time>
      </trkpt>
      <trkpt lat="47.84827" lon="5.09732">
        <ele>416.83</ele>
        <time>2021-03-23T14:00:19Z</time>
      </trkpt>
      <trkpt lat="47.84813" lon="5.09701">
        <ele>418.5</ele>
        <time>2021-03-23T14:00:33Z</time>
      </trkpt>
      <trkpt lat="47.84814" lon="5.09684">
        <ele>419.93</ele>
        <time>2021-03-23T14:00:50Z</time>
      </trkpt>
      <trkpt lat="47.84807" lon="5.09657">
        <ele>420.7</ele>
        <time>2021-03-23T14:01:07Z</time>
      </trkpt>
      <trkpt lat="47.848" lon="5.09638">
        <ele>420.5</ele>
        <time>2021-03-23T14:01:19Z</time>
      </trkpt>
      <trkpt lat="47.84798" lon="5.09634">
        <ele>420.42</ele>
        <time>2021-03-23T14:01:23Z</time>
      </trkpt>
      <trkpt lat="47.84798" lon="5.09632">
        <ele>420.39</ele>
        <time>2021-03-23T14:01:24Z</time>
      </trkpt>
      <trkpt lat="47.84796" lon="5.09609">
        <ele>420.16</ele>
        <time>2021-03-23T14:01:32Z</time>
      </trkpt>
      <trkpt lat="47.84795" lon="5.09606">
        <ele>420.12</ele>
        <time>2021-03-23T14:01:33Z</time>
      </trkpt>
      <trkpt lat="47.84794" lon="5.09604">
        <ele>420.07</ele>
        <time>2021-03-23T14:01:34Z</time>
      </trkpt>
      <trkpt lat="47.84785" lon="5.09568">
        <ele>419.26</ele>
        <time>2021-03-23T14:01:54Z</time>
      </trkpt>
      <trkpt lat="47.8477" lon="5.09518">
        <ele>418.62</ele>
        <time>2021-03-23T14:02:17Z</time>
      </trkpt>
      <trkpt lat="47.84758" lon="5.09487">
        <ele>418.31</ele>
        <time>2021-03-23T14:02:34Z</time>
      </trkpt>
      <trkpt lat="47.84745" lon="5.09444">
        <ele>418.16</ele>
        <time>2021-03-23T14:02:55Z</time>
      </trkpt>
      <trkpt lat="47.84743" lon="5.09434">
        <ele>418.09</ele>
        <time>2021-03-23T14:02:58Z</time>
      </trkpt>
      <trkpt lat="47.84735" lon="5.09402">
        <ele>418.28</ele>
        <time>2021-03-23T14:03:11Z</time>
      </trkpt>
      <trkpt lat="47.84733" lon="5.09396">
        <ele>418.23</ele>
        <time>2021-03-23T14:03:14Z</time>
      </trkpt>
      <trkpt lat="47.84724" lon="5.09363">
        <ele>418.92</ele>
        <time>2021-03-23T14:03:33Z</time>
      </trkpt>
      <trkpt lat="47.84724" lon="5.09361">
        <ele>418.97</ele>
        <time>2021-03-23T14:03:34Z</time>
      </trkpt>
      <trkpt lat="47.84723" lon="5.09359">
        <ele>419.04</ele>
        <time>2021-03-23T14:03:35Z</time>
      </trkpt>
      <trkpt lat="47.84719" lon="5.09343">
        <ele>419.45</ele>
        <time>2021-03-23T14:03:43Z</time>
      </trkpt>
      <trkpt lat="47.84714" lon="5.09339">
        <ele>419.52</ele>
        <time>2021-03-23T14:03:47Z</time>
      </trkpt>
      <trkpt lat="47.84713" lon="5.09332">
        <ele>419.54</ele>
        <time>2021-03-23T14:03:50Z</time>
      </trkpt>
      <trkpt lat="47.84712" lon="5.09329">
        <ele>419.62</ele>
        <time>2021-03-23T14:03:51Z</time>
      </trkpt>
      <trkpt lat="47.84711" lon="5.09327">
        <ele>419.68</ele>
        <time>2021-03-23T14:03:52Z</time>
      </trkpt>
      <trkpt lat="47.8471" lon="5.09324">
        <ele>419.73</ele>
        <time>2021-03-23T14:03:53Z</time>
      </trkpt>
      <trkpt lat="47.8471" lon="5.09321">
        <ele>419.75</ele>
        <time>2021-03-23T14:03:54Z</time>
      </trkpt>
      <trkpt lat="47.84708" lon="5.09313">
        <ele>419.86</ele>
        <time>2021-03-23T14:03:58Z</time>
      </trkpt>
      <trkpt lat="47.84707" lon="5.09286">
        <ele>420.73</ele>
        <time>2021-03-23T14:04:10Z</time>
      </trkpt>
      <trkpt lat="47.84707" lon="5.09283">
        <ele>420.83</ele>
        <time>2021-03-23T14:04:11Z</time>
      </trkpt>
      <trkpt lat="47.84707" lon="5.09281">
        <ele>420.91</ele>
        <time>2021-03-23T14:04:12Z</time>
      </trkpt>
      <trkpt lat="47.84707" lon="5.09242">
        <ele>422.32</ele>
        <time>2021-03-23T14:04:28Z</time>
      </trkpt>
      <trkpt lat="47.84713" lon="5.09218">
        <ele>423.84</ele>
        <time>2021-03-23T14:04:43Z</time>
      </trkpt>
      <trkpt lat="47.84714" lon="5.09195">
        <ele>426.06</ele>
        <time>2021-03-23T14:04:57Z</time>
      </trkpt>
      <trkpt lat="47.84711" lon="5.09156">
        <ele>429.1</ele>
        <time>2021-03-23T14:05:17Z</time>
      </trkpt>
      <trkpt lat="47.84707" lon="5.09114">
        <ele>432.11</ele>
        <time>2021-03-23T14:05:40Z</time>
      </trkpt>
      <trkpt lat="47.84703" lon="5.09093">
        <ele>433.32</ele>
        <time>2021-03-23T14:05:50Z</time>
      </trkpt>
      <trkpt lat="47.847" lon="5.09065">
        <ele>434.4</ele>
        <time>2021-03-23T14:06:05Z</time>
      </trkpt>
      <trkpt lat="47.84699" lon="5.09063">
        <ele>434.46</ele>
        <time>2021-03-23T14:06:06Z</time>
      </trkpt>
      <trkpt lat="47.84694" lon="5.09034">
        <ele>435.26</ele>
        <time>2021-03-23T14:06:22Z</time>
      </trkpt>
      <trkpt lat="47.84694" lon="5.09031">
        <ele>435.31</ele>
        <time>2021-03-23T14:06:23Z</time>
      </trkpt>
      <trkpt lat="47.84691" lon="5.09002">
        <ele>435.65</ele>
        <time>2021-03-23T14:06:37Z</time>
      </trkpt>
      <trkpt lat="47.8469" lon="5.08972">
        <ele>436.11</ele>
        <time>2021-03-23T14:06:51Z</time>
      </trkpt>
      <trkpt lat="47.84691" lon="5.08933">
        <ele>436.41</ele>
        <time>2021-03-23T14:07:09Z</time>
      </trkpt>
      <trkpt lat="47.84685" lon="5.08907">
        <ele>436.46</ele>
        <time>2021-03-23T14:07:22Z</time>
      </trkpt>
      <trkpt lat="47.84682" lon="5.0888">
        <ele>436.75</ele>
        <time>2021-03-23T14:07:35Z</time>
      </trkpt>
      <trkpt lat="47.84678" lon="5.08849">
        <ele>436.81</ele>
        <time>2021-03-23T14:07:49Z</time>
      </trkpt>
      <trkpt lat="47.84676" lon="5.08836">
        <ele>437.2</ele>
        <time>2021-03-23T14:07:58Z</time>
      </trkpt>
      <trkpt lat="47.84673" lon="5.08797">
        <ele>438.86</ele>
        <time>2021-03-23T14:08:17Z</time>
      </trkpt>
      <trkpt lat="47.84669" lon="5.08772">
        <ele>439.93</ele>
        <time>2021-03-23T14:08:28Z</time>
      </trkpt>
      <trkpt lat="47.84669" lon="5.08749">
        <ele>441.27</ele>
        <time>2021-03-23T14:08:39Z</time>
      </trkpt>
      <trkpt lat="47.84669" lon="5.08709">
        <ele>443.87</ele>
        <time>2021-03-23T14:09:02Z</time>
      </trkpt>
      <trkpt lat="47.84671" lon="5.08691">
        <ele>444.87</ele>
        <time>2021-03-23T14:09:11Z</time>
      </trkpt>
      <trkpt lat="47.84674" lon="5.08679">
        <ele>445.46</ele>
        <time>2021-03-23T14:09:17Z</time>
      </trkpt>
      <trkpt lat="47.84676" lon="5.08671">
        <ele>445.65</ele>
        <time>2021-03-23T14:09:21Z</time>
      </trkpt>
      <trkpt lat="47.84678" lon="5.0865">
        <ele>446.37</ele>
        <time>2021-03-23T14:09:34Z</time>
      </trkpt>
      <trkpt lat="47.84682" lon="5.08631">
        <ele>446.71</ele>
        <time>2021-03-23T14:09:54Z</time>
      </trkpt>
      <trkpt lat="47.84684" lon="5.0862">
        <ele>447.16</ele>
        <time>2021-03-23T14:10:03Z</time>
      </trkpt>
      <trkpt lat="47.84686" lon="5.0861">
        <ele>447.51</ele>
        <time>2021-03-23T14:10:08Z</time>
      </trkpt>
      <trkpt lat="47.84689" lon="5.08598">
        <ele>448.02</ele>
        <time>2021-03-23T14:10:14Z</time>
      </trkpt>
      <trkpt lat="47.84691" lon="5.08584">
        <ele>448.19</ele>
        <time>2021-03-23T14:10:23Z</time>
      </trkpt>
      <trkpt lat="47.84692" lon="5.0858">
        <ele>448.19</ele>
        <time>2021-03-23T14:10:25Z</time>
      </trkpt>
      <trkpt lat="47.84694" lon="5.0857">
        <ele>448.12</ele>
        <time>2021-03-23T14:10:30Z</time>
      </trkpt>
      <trkpt lat="47.84696" lon="5.08551">
        <ele>448.27</ele>
        <time>2021-03-23T14:10:40Z</time>
      </trkpt>
      <trkpt lat="47.84695" lon="5.08539">
        <ele>448.74</ele>
        <time>2021-03-23T14:10:56Z</time>
      </trkpt>
      <trkpt lat="47.84694" lon="5.08537">
        <ele>448.98</ele>
        <time>2021-03-23T14:11:12Z</time>
      </trkpt>
      <trkpt lat="47.84694" lon="5.08532">
        <ele>448.54</ele>
        <time>2021-03-23T14:11:35Z</time>
      </trkpt>
      <trkpt lat="47.84696" lon="5.08532">
        <ele>448.42</ele>
        <time>2021-03-23T14:12:01Z</time>
      </trkpt>
      <trkpt lat="47.84694" lon="5.0853">
        <ele>448.95</ele>
        <time>2021-03-23T14:12:21Z</time>
      </trkpt>
      <trkpt lat="47.84694" lon="5.08527">
        <ele>448.86</ele>
        <time>2021-03-23T14:12:48Z</time>
      </trkpt>
      <trkpt lat="47.84699" lon="5.08532">
        <ele>448.91</ele>
        <time>2021-03-23T14:13:15Z</time>
      </trkpt>
      <trkpt lat="47.84697" lon="5.08538">
        <ele>448.86</ele>
        <time>2021-03-23T14:13:47Z</time>
      </trkpt>
      <trkpt lat="47.84696" lon="5.08532">
        <ele>448.9</ele>
        <time>2021-03-23T14:14:05Z</time>
      </trkpt>
      <trkpt lat="47.84696" lon="5.08527">
        <ele>449</ele>
        <time>2021-03-23T14:14:42Z</time>
      </trkpt>
      <trkpt lat="47.84696" lon="5.08528">
        <ele>448.91</ele>
        <time>2021-03-23T14:15:14Z</time>
      </trkpt>
      <trkpt lat="47.84695" lon="5.08529">
        <ele>448.69</ele>
        <time>2021-03-23T14:15:44Z</time>
      </trkpt>
      <trkpt lat="47.84695" lon="5.08529">
        <ele>448.83</ele>
        <time>2021-03-23T14:16:18Z</time>
      </trkpt>
      <trkpt lat="47.84696" lon="5.08529">
        <ele>449.22</ele>
        <time>2021-03-23T14:16:50Z</time>
      </trkpt>
      <trkpt lat="47.84698" lon="5.08519">
        <ele>449.09</ele>
        <time>2021-03-23T14:17:14Z</time>
      </trkpt>
      <trkpt lat="47.84697" lon="5.08518">
        <ele>449.05</ele>
        <time>2021-03-23T14:17:50Z</time>
      </trkpt>
      <trkpt lat="47.84697" lon="5.08518">
        <ele>448.72</ele>
        <time>2021-03-23T14:18:25Z</time>
      </trkpt>
      <trkpt lat="47.84696" lon="5.08507">
        <ele>448.81</ele>
        <time>2021-03-23T14:18:36Z</time>
      </trkpt>
      <trkpt lat="47.84696" lon="5.08481">
        <ele>449.13</ele>
        <time>2021-03-23T14:18:54Z</time>
      </trkpt>
      <trkpt lat="47.84697" lon="5.08475">
        <ele>449.13</ele>
        <time>2021-03-23T14:18:58Z</time>
      </trkpt>
      <trkpt lat="47.84697" lon="5.08464">
        <ele>449.34</ele>
        <time>2021-03-23T14:19:09Z</time>
      </trkpt>
      <trkpt lat="47.84702" lon="5.08432">
        <ele>449.51</ele>
        <time>2021-03-23T14:19:27Z</time>
      </trkpt>
      <trkpt lat="47.84702" lon="5.0843">
        <ele>449.46</ele>
        <time>2021-03-23T14:19:28Z</time>
      </trkpt>
      <trkpt lat="47.84705" lon="5.08423">
        <ele>449.33</ele>
        <time>2021-03-23T14:19:32Z</time>
      </trkpt>
      <trkpt lat="47.84715" lon="5.08399">
        <ele>448.73</ele>
        <time>2021-03-23T14:19:46Z</time>
      </trkpt>
      <trkpt lat="47.84717" lon="5.08392">
        <ele>448.69</ele>
        <time>2021-03-23T14:19:50Z</time>
      </trkpt>
      <trkpt lat="47.84719" lon="5.08387">
        <ele>448.65</ele>
        <time>2021-03-23T14:19:53Z</time>
      </trkpt>
      <trkpt lat="47.84729" lon="5.0836">
        <ele>448.47</ele>
        <time>2021-03-23T14:20:09Z</time>
      </trkpt>
      <trkpt lat="47.84735" lon="5.08335">
        <ele>448.11</ele>
        <time>2021-03-23T14:20:22Z</time>
      </trkpt>
      <trkpt lat="47.8474" lon="5.08303">
        <ele>447.59</ele>
        <time>2021-03-23T14:20:38Z</time>
      </trkpt>
      <trkpt lat="47.84743" lon="5.08281">
        <ele>447.04</ele>
        <time>2021-03-23T14:20:48Z</time>
      </trkpt>
      <trkpt lat="47.84745" lon="5.08271">
        <ele>446.8</ele>
        <time>2021-03-23T14:20:52Z</time>
      </trkpt>
      <trkpt lat="47.84748" lon="5.08256">
        <ele>446.39</ele>
        <time>2021-03-23T14:21:01Z</time>
      </trkpt>
      <trkpt lat="47.84749" lon="5.08249">
        <ele>446.29</ele>
        <time>2021-03-23T14:21:04Z</time>
      </trkpt>
      <trkpt lat="47.84751" lon="5.08243">
        <ele>446.21</ele>
        <time>2021-03-23T14:21:08Z</time>
      </trkpt>
      <trkpt lat="47.84755" lon="5.08232">
        <ele>445.96</ele>
        <time>2021-03-23T14:21:15Z</time>
      </trkpt>
      <trkpt lat="47.8476" lon="5.08215">
        <ele>445.54</ele>
        <time>2021-03-23T14:21:25Z</time>
      </trkpt>
      <trkpt lat="47.84768" lon="5.08195">
        <ele>445.16</ele>
        <time>2021-03-23T14:21:39Z</time>
      </trkpt>
      <trkpt lat="47.84769" lon="5.08187">
        <ele>445.04</ele>
        <time>2021-03-23T14:21:43Z</time>
      </trkpt>
      <trkpt lat="47.84777" lon="5.08154">
        <ele>444.12</ele>
        <time>2021-03-23T14:21:59Z</time>
      </trkpt>
      <trkpt lat="47.84782" lon="5.08123">
        <ele>443.03</ele>
        <time>2021-03-23T14:22:15Z</time>
      </trkpt>
      <trkpt lat="47.84786" lon="5.08094">
        <ele>442.15</ele>
        <time>2021-03-23T14:22:30Z</time>
      </trkpt>
      <trkpt lat="47.8479" lon="5.08072">
        <ele>441.38</ele>
        <time>2021-03-23T14:22:42Z</time>
      </trkpt>
      <trkpt lat="47.84791" lon="5.08062">
        <ele>441.14</ele>
        <time>2021-03-23T14:22:47Z</time>
      </trkpt>
      <trkpt lat="47.84797" lon="5.08026">
        <ele>439.74</ele>
        <time>2021-03-23T14:23:06Z</time>
      </trkpt>
      <trkpt lat="47.84806" lon="5.07992">
        <ele>438.19</ele>
        <time>2021-03-23T14:23:24Z</time>
      </trkpt>
      <trkpt lat="47.84813" lon="5.07958">
        <ele>436.97</ele>
        <time>2021-03-23T14:23:42Z</time>
      </trkpt>
      <trkpt lat="47.84815" lon="5.07944">
        <ele>436.68</ele>
        <time>2021-03-23T14:23:49Z</time>
      </trkpt>
      <trkpt lat="47.8482" lon="5.07924">
        <ele>436.41</ele>
        <time>2021-03-23T14:23:59Z</time>
      </trkpt>
      <trkpt lat="47.84823" lon="5.07918">
        <ele>436.34</ele>
        <time>2021-03-23T14:24:03Z</time>
      </trkpt>
      <trkpt lat="47.84835" lon="5.07893">
        <ele>435.86</ele>
        <time>2021-03-23T14:24:19Z</time>
      </trkpt>
      <trkpt lat="47.84836" lon="5.07892">
        <ele>435.81</ele>
        <time>2021-03-23T14:24:20Z</time>
      </trkpt>
      <trkpt lat="47.84839" lon="5.07885">
        <ele>435.73</ele>
        <time>2021-03-23T14:24:24Z</time>
      </trkpt>
      <trkpt lat="47.84848" lon="5.07872">
        <ele>435.55</ele>
        <time>2021-03-23T14:24:32Z</time>
      </trkpt>
      <trkpt lat="47.84859" lon="5.07855">
        <ele>435.35</ele>
        <time>2021-03-23T14:24:44Z</time>
      </trkpt>
      <trkpt lat="47.84872" lon="5.07837">
        <ele>434.92</ele>
        <time>2021-03-23T14:24:58Z</time>
      </trkpt>
      <trkpt lat="47.84881" lon="5.07811">
        <ele>434.17</ele>
        <time>2021-03-23T14:25:13Z</time>
      </trkpt>
      <trkpt lat="47.84882" lon="5.07806">
        <ele>434.06</ele>
        <time>2021-03-23T14:25:15Z</time>
      </trkpt>
      <trkpt lat="47.84892" lon="5.07796">
        <ele>433.78</ele>
        <time>2021-03-23T14:25:22Z</time>
      </trkpt>
      <trkpt lat="47.84898" lon="5.07784">
        <ele>433.82</ele>
        <time>2021-03-23T14:25:28Z</time>
      </trkpt>
      <trkpt lat="47.84898" lon="5.07776">
        <ele>433.7</ele>
        <time>2021-03-23T14:25:32Z</time>
      </trkpt>
      <trkpt lat="47.84888" lon="5.07754">
        <ele>433.78</ele>
        <time>2021-03-23T14:25:46Z</time>
      </trkpt>
      <trkpt lat="47.84873" lon="5.07735">
        <ele>433.61</ele>
        <time>2021-03-23T14:26:01Z</time>
      </trkpt>
      <trkpt lat="47.84869" lon="5.07725">
        <ele>433.84</ele>
        <time>2021-03-23T14:26:12Z</time>
      </trkpt>
      <trkpt lat="47.84859" lon="5.07711">
        <ele>434.25</ele>
        <time>2021-03-23T14:26:28Z</time>
      </trkpt>
      <trkpt lat="47.84843" lon="5.07682">
        <ele>434.06</ele>
        <time>2021-03-23T14:26:49Z</time>
      </trkpt>
      <trkpt lat="47.84727" lon="5.07481">
        <ele>432.4</ele>
      </trkpt>
      <trkpt lat="47.84694" lon="5.07425">
        <ele>430.5</ele>
      </trkpt>
      <trkpt lat="47.84601" lon="5.07631">
        <ele>420.5</ele>
      </trkpt>
      <trkpt lat="47.84561" lon="5.07739">
        <ele>420.9</ele>
      </trkpt>
      <trkpt lat="47.84502" lon="5.07829">
        <ele>418.8</ele>
      </trkpt>
      <trkpt lat="47.84411" lon="5.07982">
        <ele>425.9</ele>
      </trkpt>
      <trkpt lat="47.84367" lon="5.08041">
        <ele>425.65</ele>
        <time>2021-03-23T14:37:16Z</time>
      </trkpt>
      <trkpt lat="47.84359" lon="5.08053">
        <ele>424.59</ele>
        <time>2021-03-23T14:37:35Z</time>
      </trkpt>
      <trkpt lat="47.84355" lon="5.08057">
        <ele>424.54</ele>
        <time>2021-03-23T14:37:57Z</time>
      </trkpt>
      <trkpt lat="47.84358" lon="5.08055">
        <ele>424.49</ele>
        <time>2021-03-23T14:38:22Z</time>
      </trkpt>
      <trkpt lat="47.8436" lon="5.08055">
        <ele>424.89</ele>
        <time>2021-03-23T14:38:45Z</time>
      </trkpt>
      <trkpt lat="47.84359" lon="5.0806">
        <ele>424.89</ele>
        <time>2021-03-23T14:39:10Z</time>
      </trkpt>
      <trkpt lat="47.84345" lon="5.08074">
        <ele>425.31</ele>
        <time>2021-03-23T14:39:29Z</time>
      </trkpt>
      <trkpt lat="47.84323" lon="5.08097">
        <ele>425.28</ele>
        <time>2021-03-23T14:39:52Z</time>
      </trkpt>
      <trkpt lat="47.84318" lon="5.08106">
        <ele>425.71</ele>
        <time>2021-03-23T14:40:01Z</time>
      </trkpt>
      <trkpt lat="47.84315" lon="5.0811">
        <ele>426.25</ele>
        <time>2021-03-23T14:40:07Z</time>
      </trkpt>
      <trkpt lat="47.84302" lon="5.08117">
        <ele>425.98</ele>
        <time>2021-03-23T14:40:29Z</time>
      </trkpt>
      <trkpt lat="47.84296" lon="5.08123">
        <ele>426.08</ele>
        <time>2021-03-23T14:40:39Z</time>
      </trkpt>
      <trkpt lat="47.84292" lon="5.08126">
        <ele>426.16</ele>
        <time>2021-03-23T14:40:43Z</time>
      </trkpt>
      <trkpt lat="47.84276" lon="5.08143">
        <ele>426.88</ele>
        <time>2021-03-23T14:40:59Z</time>
      </trkpt>
      <trkpt lat="47.8427" lon="5.08148">
        <ele>427</ele>
        <time>2021-03-23T14:41:04Z</time>
      </trkpt>
      <trkpt lat="47.84257" lon="5.08153">
        <ele>427.44</ele>
        <time>2021-03-23T14:41:14Z</time>
      </trkpt>
      <trkpt lat="47.84254" lon="5.08154">
        <ele>427.62</ele>
        <time>2021-03-23T14:41:17Z</time>
      </trkpt>
      <trkpt lat="47.84236" lon="5.08157">
        <ele>427.93</ele>
        <time>2021-03-23T14:41:31Z</time>
      </trkpt>
      <trkpt lat="47.84231" lon="5.08158">
        <ele>427.98</ele>
        <time>2021-03-23T14:41:36Z</time>
      </trkpt>
      <trkpt lat="47.84224" lon="5.0816">
        <ele>428.26</ele>
        <time>2021-03-23T14:41:41Z</time>
      </trkpt>
      <trkpt lat="47.84195" lon="5.0817">
        <ele>429.28</ele>
        <time>2021-03-23T14:42:05Z</time>
      </trkpt>
      <trkpt lat="47.84169" lon="5.08171">
        <ele>429.84</ele>
        <time>2021-03-23T14:42:25Z</time>
      </trkpt>
      <trkpt lat="47.84163" lon="5.08171">
        <ele>430.07</ele>
        <time>2021-03-23T14:42:31Z</time>
      </trkpt>
      <trkpt lat="47.84139" lon="5.08176">
        <ele>430.48</ele>
        <time>2021-03-23T14:42:50Z</time>
      </trkpt>
      <trkpt lat="47.84121" lon="5.08175">
        <ele>428.99</ele>
        <time>2021-03-23T14:43:07Z</time>
      </trkpt>
      <trkpt lat="47.8411" lon="5.08173">
        <ele>428.19</ele>
        <time>2021-03-23T14:43:16Z</time>
      </trkpt>
      <trkpt lat="47.84092" lon="5.08167">
        <ele>426.39</ele>
        <time>2021-03-23T14:43:28Z</time>
      </trkpt>
      <trkpt lat="47.84087" lon="5.08162">
        <ele>425.79</ele>
        <time>2021-03-23T14:43:32Z</time>
      </trkpt>
      <trkpt lat="47.84075" lon="5.0816">
        <ele>424.59</ele>
        <time>2021-03-23T14:43:44Z</time>
      </trkpt>
      <trkpt lat="47.84054" lon="5.08163">
        <ele>421.51</ele>
        <time>2021-03-23T14:44:06Z</time>
      </trkpt>
      <trkpt lat="47.84032" lon="5.08166">
        <ele>418.36</ele>
        <time>2021-03-23T14:44:22Z</time>
      </trkpt>
      <trkpt lat="47.84013" lon="5.08165">
        <ele>415.27</ele>
        <time>2021-03-23T14:44:38Z</time>
      </trkpt>
      <trkpt lat="47.83996" lon="5.08166">
        <ele>412.12</ele>
        <time>2021-03-23T14:44:52Z</time>
      </trkpt>
      <trkpt lat="47.83995" lon="5.08166">
        <ele>411.95</ele>
        <time>2021-03-23T14:44:53Z</time>
      </trkpt>
      <trkpt lat="47.83974" lon="5.08157">
        <ele>408.54</ele>
        <time>2021-03-23T14:45:12Z</time>
      </trkpt>
      <trkpt lat="47.83969" lon="5.08169">
        <ele>405.95</ele>
        <time>2021-03-23T14:45:23Z</time>
      </trkpt>
      <trkpt lat="47.83964" lon="5.08199">
        <ele>402.67</ele>
        <time>2021-03-23T14:45:42Z</time>
      </trkpt>
      <trkpt lat="47.8396" lon="5.0823">
        <ele>399.48</ele>
        <time>2021-03-23T14:46:02Z</time>
      </trkpt>
      <trkpt lat="47.83958" lon="5.08261">
        <ele>396.48</ele>
        <time>2021-03-23T14:46:22Z</time>
      </trkpt>
      <trkpt lat="47.83964" lon="5.08288">
        <ele>393.55</ele>
        <time>2021-03-23T14:46:38Z</time>
      </trkpt>
      <trkpt lat="47.83969" lon="5.08311">
        <ele>390.31</ele>
        <time>2021-03-23T14:46:54Z</time>
      </trkpt>
      <trkpt lat="47.83975" lon="5.08336">
        <ele>387.22</ele>
        <time>2021-03-23T14:47:11Z</time>
      </trkpt>
      <trkpt lat="47.83979" lon="5.0836">
        <ele>384.15</ele>
        <time>2021-03-23T14:47:27Z</time>
      </trkpt>
      <trkpt lat="47.83984" lon="5.08388">
        <ele>381.07</ele>
        <time>2021-03-23T14:47:45Z</time>
      </trkpt>
      <trkpt lat="47.83984" lon="5.0842">
        <ele>378.2</ele>
        <time>2021-03-23T14:48:02Z</time>
      </trkpt>
      <trkpt lat="47.83984" lon="5.08428">
        <ele>377.45</ele>
        <time>2021-03-23T14:48:06Z</time>
      </trkpt>
      <trkpt lat="47.83987" lon="5.0846">
        <ele>374.84</ele>
        <time>2021-03-23T14:48:21Z</time>
      </trkpt>
      <trkpt lat="47.83984" lon="5.08487">
        <ele>372.36</ele>
        <time>2021-03-23T14:48:39Z</time>
      </trkpt>
      <trkpt lat="47.83977" lon="5.08516">
        <ele>369.8</ele>
        <time>2021-03-23T14:48:58Z</time>
      </trkpt>
      <trkpt lat="47.83971" lon="5.08544">
        <ele>367.56</ele>
        <time>2021-03-23T14:49:15Z</time>
      </trkpt>
      <trkpt lat="47.83965" lon="5.08574">
        <ele>365.38</ele>
        <time>2021-03-23T14:49:33Z</time>
      </trkpt>
      <trkpt lat="47.83959" lon="5.08598">
        <ele>363.44</ele>
        <time>2021-03-23T14:49:49Z</time>
      </trkpt>
      <trkpt lat="47.83953" lon="5.08609">
        <ele>362.22</ele>
        <time>2021-03-23T14:49:59Z</time>
      </trkpt>
      <trkpt lat="47.83932" lon="5.08633">
        <ele>359.33</ele>
        <time>2021-03-23T14:50:18Z</time>
      </trkpt>
      <trkpt lat="47.83922" lon="5.08634">
        <ele>358.92</ele>
        <time>2021-03-23T14:50:24Z</time>
      </trkpt>
      <trkpt lat="47.83914" lon="5.08635">
        <ele>358.69</ele>
        <time>2021-03-23T14:50:30Z</time>
      </trkpt>
      <trkpt lat="47.8391" lon="5.08634">
        <ele>358.67</ele>
        <time>2021-03-23T14:50:35Z</time>
      </trkpt>
      <trkpt lat="47.83891" lon="5.08632">
        <ele>358.74</ele>
        <time>2021-03-23T14:50:51Z</time>
      </trkpt>
      <trkpt lat="47.83878" lon="5.08627">
        <ele>358.5</ele>
        <time>2021-03-23T14:51:04Z</time>
      </trkpt>
      <trkpt lat="47.83873" lon="5.08626">
        <ele>358.44</ele>
        <time>2021-03-23T14:51:08Z</time>
      </trkpt>
      <trkpt lat="47.83855" lon="5.08624">
        <ele>358.86</ele>
        <time>2021-03-23T14:51:21Z</time>
      </trkpt>
      <trkpt lat="47.83844" lon="5.08621">
        <ele>358.91</ele>
        <time>2021-03-23T14:51:29Z</time>
      </trkpt>
      <trkpt lat="47.83828" lon="5.08619">
        <ele>359.78</ele>
        <time>2021-03-23T14:51:42Z</time>
      </trkpt>
      <trkpt lat="47.83826" lon="5.08619">
        <ele>359.86</ele>
        <time>2021-03-23T14:51:44Z</time>
      </trkpt>
      <trkpt lat="47.83824" lon="5.08619">
        <ele>359.94</ele>
        <time>2021-03-23T14:51:46Z</time>
      </trkpt>
      <trkpt lat="47.83818" lon="5.08618">
        <ele>360.03</ele>
        <time>2021-03-23T14:51:50Z</time>
      </trkpt>
      <trkpt lat="47.83801" lon="5.08614">
        <ele>360.68</ele>
        <time>2021-03-23T14:52:03Z</time>
      </trkpt>
      <trkpt lat="47.83787" lon="5.0861">
        <ele>361.35</ele>
        <time>2021-03-23T14:52:15Z</time>
      </trkpt>
      <trkpt lat="47.83766" lon="5.0861">
        <ele>362.49</ele>
        <time>2021-03-23T14:52:29Z</time>
      </trkpt>
      <trkpt lat="47.83746" lon="5.08617">
        <ele>363.21</ele>
        <time>2021-03-23T14:52:45Z</time>
      </trkpt>
      <trkpt lat="47.83732" lon="5.08622">
        <ele>363.89</ele>
        <time>2021-03-23T14:52:56Z</time>
      </trkpt>
      <trkpt lat="47.83725" lon="5.08624">
        <ele>364.19</ele>
        <time>2021-03-23T14:53:01Z</time>
      </trkpt>
      <trkpt lat="47.83717" lon="5.08628">
        <ele>364.41</ele>
        <time>2021-03-23T14:53:07Z</time>
      </trkpt>
      <trkpt lat="47.83707" lon="5.08629">
        <ele>364.45</ele>
        <time>2021-03-23T14:53:15Z</time>
      </trkpt>
      <trkpt lat="47.83701" lon="5.08629">
        <ele>364.46</ele>
        <time>2021-03-23T14:53:20Z</time>
      </trkpt>
      <trkpt lat="47.83679" lon="5.08632">
        <ele>364.35</ele>
        <time>2021-03-23T14:53:34Z</time>
      </trkpt>
      <trkpt lat="47.83657" lon="5.08628">
        <ele>364.04</ele>
        <time>2021-03-23T14:53:49Z</time>
      </trkpt>
      <trkpt lat="47.8364" lon="5.08616">
        <ele>364.55</ele>
        <time>2021-03-23T14:54:03Z</time>
      </trkpt>
      <trkpt lat="47.83633" lon="5.08611">
        <ele>364.41</ele>
        <time>2021-03-23T14:54:09Z</time>
      </trkpt>
      <trkpt lat="47.83628" lon="5.08606">
        <ele>364.44</ele>
        <time>2021-03-23T14:54:14Z</time>
      </trkpt>
      <trkpt lat="47.83603" lon="5.08588">
        <ele>364.54</ele>
        <time>2021-03-23T14:54:34Z</time>
      </trkpt>
      <trkpt lat="47.83581" lon="5.0857">
        <ele>364.9</ele>
        <time>2021-03-23T14:54:53Z</time>
      </trkpt>
      <trkpt lat="47.83557" lon="5.08553">
        <ele>364.84</ele>
        <time>2021-03-23T14:55:12Z</time>
      </trkpt>
      <trkpt lat="47.83555" lon="5.0855">
        <ele>364.88</ele>
        <time>2021-03-23T14:55:14Z</time>
      </trkpt>
      <trkpt lat="47.83531" lon="5.08531">
        <ele>364.96</ele>
        <time>2021-03-23T14:55:33Z</time>
      </trkpt>
      <trkpt lat="47.83521" lon="5.08523">
        <ele>365.15</ele>
        <time>2021-03-23T14:55:41Z</time>
      </trkpt>
      <trkpt lat="47.83511" lon="5.08517">
        <ele>365.02</ele>
        <time>2021-03-23T14:55:49Z</time>
      </trkpt>
      <trkpt lat="47.83499" lon="5.08507">
        <ele>365.08</ele>
        <time>2021-03-23T14:55:59Z</time>
      </trkpt>
      <trkpt lat="47.83487" lon="5.08501">
        <ele>365.23</ele>
        <time>2021-03-23T14:56:07Z</time>
      </trkpt>
      <trkpt lat="47.83479" lon="5.08495">
        <ele>365.23</ele>
        <time>2021-03-23T14:56:14Z</time>
      </trkpt>
      <trkpt lat="47.8346" lon="5.08479">
        <ele>365.29</ele>
        <time>2021-03-23T14:56:30Z</time>
      </trkpt>
      <trkpt lat="47.83435" lon="5.0846">
        <ele>364.97</ele>
        <time>2021-03-23T14:56:50Z</time>
      </trkpt>
      <trkpt lat="47.83411" lon="5.08445">
        <ele>365.24</ele>
        <time>2021-03-23T14:57:09Z</time>
      </trkpt>
      <trkpt lat="47.83388" lon="5.08439">
        <ele>365.48</ele>
        <time>2021-03-23T14:57:27Z</time>
      </trkpt>
      <trkpt lat="47.83364" lon="5.0843">
        <ele>365.81</ele>
        <time>2021-03-23T14:57:45Z</time>
      </trkpt>
      <trkpt lat="47.83339" lon="5.08429">
        <ele>365.66</ele>
        <time>2021-03-23T14:58:05Z</time>
      </trkpt>
      <trkpt lat="47.83324" lon="5.08427">
        <ele>365.17</ele>
        <time>2021-03-23T14:58:15Z</time>
      </trkpt>
      <trkpt lat="47.833" lon="5.08429">
        <ele>364.29</ele>
        <time>2021-03-23T14:58:34Z</time>
      </trkpt>
      <trkpt lat="47.83273" lon="5.0843">
        <ele>364.06</ele>
        <time>2021-03-23T14:58:55Z</time>
      </trkpt>
      <trkpt lat="47.83247" lon="5.08432">
        <ele>363.51</ele>
        <time>2021-03-23T14:59:14Z</time>
      </trkpt>
      <trkpt lat="47.83223" lon="5.08438">
        <ele>361.9</ele>
        <time>2021-03-23T14:59:32Z</time>
      </trkpt>
      <trkpt lat="47.83201" lon="5.08449">
        <ele>361.41</ele>
        <time>2021-03-23T14:59:49Z</time>
      </trkpt>
      <trkpt lat="47.83178" lon="5.08461">
        <ele>360.84</ele>
        <time>2021-03-23T15:00:08Z</time>
      </trkpt>
      <trkpt lat="47.83157" lon="5.08478">
        <ele>360.38</ele>
        <time>2021-03-23T15:00:24Z</time>
      </trkpt>
      <trkpt lat="47.8314" lon="5.08498">
        <ele>359.53</ele>
        <time>2021-03-23T15:00:41Z</time>
      </trkpt>
      <trkpt lat="47.83124" lon="5.08515">
        <ele>358.47</ele>
        <time>2021-03-23T15:00:56Z</time>
      </trkpt>
      <trkpt lat="47.83107" lon="5.08539">
        <ele>357.85</ele>
        <time>2021-03-23T15:01:14Z</time>
      </trkpt>
      <trkpt lat="47.83096" lon="5.08553">
        <ele>356.23</ele>
        <time>2021-03-23T15:01:27Z</time>
      </trkpt>
      <trkpt lat="47.83075" lon="5.08576">
        <ele>355.58</ele>
        <time>2021-03-23T15:01:46Z</time>
      </trkpt>
      <trkpt lat="47.83048" lon="5.08588">
        <ele>355.01</ele>
        <time>2021-03-23T15:02:07Z</time>
      </trkpt>
      <trkpt lat="47.83044" lon="5.0859">
        <ele>354.92</ele>
        <time>2021-03-23T15:02:10Z</time>
      </trkpt>
      <trkpt lat="47.83037" lon="5.0859">
        <ele>354.65</ele>
        <time>2021-03-23T15:02:15Z</time>
      </trkpt>
      <trkpt lat="47.83018" lon="5.08595">
        <ele>354.03</ele>
        <time>2021-03-23T15:02:29Z</time>
      </trkpt>
      <trkpt lat="47.83" lon="5.08607">
        <ele>352.49</ele>
        <time>2021-03-23T15:02:45Z</time>
      </trkpt>
      <trkpt lat="47.82997" lon="5.08629">
        <ele>353</ele>
        <time>2021-03-23T15:02:57Z</time>
      </trkpt>
      <trkpt lat="47.83008" lon="5.08654">
        <ele>354.86</ele>
        <time>2021-03-23T15:03:14Z</time>
      </trkpt>
      <trkpt lat="47.83017" lon="5.08671">
        <ele>356.37</ele>
        <time>2021-03-23T15:03:26Z</time>
      </trkpt>
      <trkpt lat="47.83032" lon="5.08687">
        <ele>358.01</ele>
        <time>2021-03-23T15:03:40Z</time>
      </trkpt>
      <trkpt lat="47.83035" lon="5.08692">
        <ele>358.65</ele>
        <time>2021-03-23T15:03:45Z</time>
      </trkpt>
      <trkpt lat="47.83039" lon="5.08698">
        <ele>359.31</ele>
        <time>2021-03-23T15:03:49Z</time>
      </trkpt>
      <trkpt lat="47.83055" lon="5.08715">
        <ele>361.08</ele>
        <time>2021-03-23T15:04:05Z</time>
      </trkpt>
      <trkpt lat="47.83067" lon="5.08733">
        <ele>362.37</ele>
        <time>2021-03-23T15:04:20Z</time>
      </trkpt>
      <trkpt lat="47.83076" lon="5.08747">
        <ele>363.2</ele>
        <time>2021-03-23T15:04:34Z</time>
      </trkpt>
      <trkpt lat="47.83079" lon="5.08751">
        <ele>363.51</ele>
        <time>2021-03-23T15:04:38Z</time>
      </trkpt>
      <trkpt lat="47.83082" lon="5.08758">
        <ele>364.06</ele>
        <time>2021-03-23T15:04:43Z</time>
      </trkpt>
      <trkpt lat="47.83094" lon="5.08778">
        <ele>365.42</ele>
        <time>2021-03-23T15:04:59Z</time>
      </trkpt>
      <trkpt lat="47.83108" lon="5.08797">
        <ele>366.29</ele>
        <time>2021-03-23T15:05:16Z</time>
      </trkpt>
      <trkpt lat="47.83126" lon="5.08806">
        <ele>367.22</ele>
        <time>2021-03-23T15:05:33Z</time>
      </trkpt>
      <trkpt lat="47.83139" lon="5.08811">
        <ele>368.08</ele>
        <time>2021-03-23T15:05:45Z</time>
      </trkpt>
      <trkpt lat="47.83155" lon="5.08816">
        <ele>369.2</ele>
        <time>2021-03-23T15:06:01Z</time>
      </trkpt>
      <trkpt lat="47.83155" lon="5.08816">
        <ele>369.43</ele>
        <time>2021-03-23T15:06:05Z</time>
      </trkpt>
      <trkpt lat="47.8316" lon="5.08816">
        <ele>369.57</ele>
        <time>2021-03-23T15:06:10Z</time>
      </trkpt>
      <trkpt lat="47.83173" lon="5.0882">
        <ele>370.4</ele>
        <time>2021-03-23T15:06:25Z</time>
      </trkpt>
      <trkpt lat="47.83174" lon="5.0882">
        <ele>370.53</ele>
        <time>2021-03-23T15:06:30Z</time>
      </trkpt>
      <trkpt lat="47.8318" lon="5.08822">
        <ele>370.59</ele>
        <time>2021-03-23T15:06:35Z</time>
      </trkpt>
      <trkpt lat="47.83203" lon="5.08827">
        <ele>371.65</ele>
        <time>2021-03-23T15:06:55Z</time>
      </trkpt>
      <trkpt lat="47.83225" lon="5.08837">
        <ele>372.59</ele>
        <time>2021-03-23T15:07:12Z</time>
      </trkpt>
      <trkpt lat="47.83247" lon="5.0885">
        <ele>374.22</ele>
        <time>2021-03-23T15:07:32Z</time>
      </trkpt>
      <trkpt lat="47.83266" lon="5.08859">
        <ele>375.9</ele>
        <time>2021-03-23T15:07:49Z</time>
      </trkpt>
      <trkpt lat="47.83279" lon="5.08861">
        <ele>377.35</ele>
        <time>2021-03-23T15:08:02Z</time>
      </trkpt>
      <trkpt lat="47.83295" lon="5.08853">
        <ele>379.03</ele>
        <time>2021-03-23T15:08:16Z</time>
      </trkpt>
      <trkpt lat="47.83301" lon="5.08847">
        <ele>380.02</ele>
        <time>2021-03-23T15:08:23Z</time>
      </trkpt>
      <trkpt lat="47.83306" lon="5.08838">
        <ele>381.1</ele>
        <time>2021-03-23T15:08:30Z</time>
      </trkpt>
      <trkpt lat="47.83316" lon="5.08818">
        <ele>382.73</ele>
        <time>2021-03-23T15:08:44Z</time>
      </trkpt>
      <trkpt lat="47.8332" lon="5.08809">
        <ele>383.85</ele>
        <time>2021-03-23T15:08:50Z</time>
      </trkpt>
      <trkpt lat="47.83322" lon="5.08805">
        <ele>384.2</ele>
        <time>2021-03-23T15:08:53Z</time>
      </trkpt>
      <trkpt lat="47.83329" lon="5.08793">
        <ele>385.27</ele>
        <time>2021-03-23T15:09:02Z</time>
      </trkpt>
      <trkpt lat="47.83339" lon="5.08771">
        <ele>387.09</ele>
        <time>2021-03-23T15:09:17Z</time>
      </trkpt>
      <trkpt lat="47.83347" lon="5.08757">
        <ele>388.39</ele>
        <time>2021-03-23T15:09:30Z</time>
      </trkpt>
      <trkpt lat="47.83349" lon="5.08753">
        <ele>388.78</ele>
        <time>2021-03-23T15:09:33Z</time>
      </trkpt>
      <trkpt lat="47.83358" lon="5.08738">
        <ele>389.83</ele>
        <time>2021-03-23T15:09:45Z</time>
      </trkpt>
      <trkpt lat="47.83365" lon="5.08726">
        <ele>390.73</ele>
        <time>2021-03-23T15:09:54Z</time>
      </trkpt>
      <trkpt lat="47.83369" lon="5.08721">
        <ele>391.27</ele>
        <time>2021-03-23T15:09:59Z</time>
      </trkpt>
      <trkpt lat="47.83372" lon="5.08718">
        <ele>391.62</ele>
        <time>2021-03-23T15:10:02Z</time>
      </trkpt>
      <trkpt lat="47.83374" lon="5.08715">
        <ele>391.96</ele>
        <time>2021-03-23T15:10:05Z</time>
      </trkpt>
      <trkpt lat="47.83377" lon="5.08714">
        <ele>392.13</ele>
        <time>2021-03-23T15:10:07Z</time>
      </trkpt>
      <trkpt lat="47.83384" lon="5.08711">
        <ele>392.74</ele>
        <time>2021-03-23T15:10:14Z</time>
      </trkpt>
      <trkpt lat="47.83402" lon="5.08707">
        <ele>393.79</ele>
        <time>2021-03-23T15:10:29Z</time>
      </trkpt>
      <trkpt lat="47.83417" lon="5.08712">
        <ele>394.72</ele>
        <time>2021-03-23T15:10:41Z</time>
      </trkpt>
      <trkpt lat="47.83433" lon="5.08722">
        <ele>395.74</ele>
        <time>2021-03-23T15:10:54Z</time>
      </trkpt>
      <trkpt lat="47.8345" lon="5.0874">
        <ele>396.62</ele>
        <time>2021-03-23T15:11:10Z</time>
      </trkpt>
      <trkpt lat="47.83451" lon="5.08742">
        <ele>396.77</ele>
        <time>2021-03-23T15:11:12Z</time>
      </trkpt>
      <trkpt lat="47.83464" lon="5.08754">
        <ele>398.24</ele>
        <time>2021-03-23T15:11:27Z</time>
      </trkpt>
      <trkpt lat="47.83476" lon="5.08767">
        <ele>398.76</ele>
        <time>2021-03-23T15:11:40Z</time>
      </trkpt>
      <trkpt lat="47.8349" lon="5.0878">
        <ele>398.72</ele>
        <time>2021-03-23T15:11:56Z</time>
      </trkpt>
      <trkpt lat="47.83496" lon="5.08783">
        <ele>399.12</ele>
        <time>2021-03-23T15:12:17Z</time>
      </trkpt>
      <trkpt lat="47.83496" lon="5.08783">
        <ele>399.05</ele>
        <time>2021-03-23T15:12:25Z</time>
      </trkpt>
      <trkpt lat="47.83498" lon="5.08786">
        <ele>399.04</ele>
        <time>2021-03-23T15:12:28Z</time>
      </trkpt>
      <trkpt lat="47.83504" lon="5.0879">
        <ele>399.26</ele>
        <time>2021-03-23T15:12:44Z</time>
      </trkpt>
      <trkpt lat="47.83507" lon="5.08793">
        <ele>398.73</ele>
        <time>2021-03-23T15:13:03Z</time>
      </trkpt>
      <trkpt lat="47.83509" lon="5.08797">
        <ele>398.61</ele>
        <time>2021-03-23T15:13:26Z</time>
      </trkpt>
      <trkpt lat="47.83516" lon="5.08803">
        <ele>399.29</ele>
        <time>2021-03-23T15:13:43Z</time>
      </trkpt>
      <trkpt lat="47.8352" lon="5.08807">
        <ele>399.22</ele>
        <time>2021-03-23T15:13:49Z</time>
      </trkpt>
      <trkpt lat="47.83534" lon="5.08819">
        <ele>399.25</ele>
        <time>2021-03-23T15:14:05Z</time>
      </trkpt>
      <trkpt lat="47.83549" lon="5.08831">
        <ele>399.98</ele>
        <time>2021-03-23T15:14:20Z</time>
      </trkpt>
      <trkpt lat="47.83566" lon="5.08846">
        <ele>400.73</ele>
        <time>2021-03-23T15:14:36Z</time>
      </trkpt>
      <trkpt lat="47.83569" lon="5.08848">
        <ele>400.82</ele>
        <time>2021-03-23T15:14:38Z</time>
      </trkpt>
      <trkpt lat="47.83591" lon="5.08865">
        <ele>402.19</ele>
        <time>2021-03-23T15:14:57Z</time>
      </trkpt>
      <trkpt lat="47.83603" lon="5.08876">
        <ele>402.93</ele>
        <time>2021-03-23T15:15:08Z</time>
      </trkpt>
      <trkpt lat="47.83621" lon="5.08889">
        <ele>403.39</ele>
        <time>2021-03-23T15:15:23Z</time>
      </trkpt>
      <trkpt lat="47.83632" lon="5.08912">
        <ele>404.12</ele>
        <time>2021-03-23T15:15:39Z</time>
      </trkpt>
      <trkpt lat="47.83631" lon="5.08936">
        <ele>406.41</ele>
        <time>2021-03-23T15:15:53Z</time>
      </trkpt>
      <trkpt lat="47.83629" lon="5.08941">
        <ele>407.18</ele>
        <time>2021-03-23T15:15:57Z</time>
      </trkpt>
      <trkpt lat="47.83624" lon="5.08962">
        <ele>409.71</ele>
        <time>2021-03-23T15:16:11Z</time>
      </trkpt>
      <trkpt lat="47.83623" lon="5.0897">
        <ele>410.37</ele>
        <time>2021-03-23T15:16:16Z</time>
      </trkpt>
      <trkpt lat="47.83623" lon="5.08973">
        <ele>410.68</ele>
        <time>2021-03-23T15:16:18Z</time>
      </trkpt>
      <trkpt lat="47.83619" lon="5.08989">
        <ele>412.93</ele>
        <time>2021-03-23T15:16:32Z</time>
      </trkpt>
      <trkpt lat="47.8362" lon="5.08996">
        <ele>414.51</ele>
        <time>2021-03-23T15:16:47Z</time>
      </trkpt>
      <trkpt lat="47.83627" lon="5.08998">
        <ele>414.83</ele>
        <time>2021-03-23T15:17:08Z</time>
      </trkpt>
      <trkpt lat="47.83634" lon="5.08998">
        <ele>414.88</ele>
        <time>2021-03-23T15:17:17Z</time>
      </trkpt>
      <trkpt lat="47.83637" lon="5.08998">
        <ele>414.74</ele>
        <time>2021-03-23T15:17:20Z</time>
      </trkpt>
      <trkpt lat="47.83649" lon="5.08997">
        <ele>413.93</ele>
        <time>2021-03-23T15:17:34Z</time>
      </trkpt>
      <trkpt lat="47.83667" lon="5.09001">
        <ele>413.12</ele>
        <time>2021-03-23T15:17:53Z</time>
      </trkpt>
      <trkpt lat="47.83689" lon="5.09013">
        <ele>412.28</ele>
        <time>2021-03-23T15:18:13Z</time>
      </trkpt>
      <trkpt lat="47.8371" lon="5.09031">
        <ele>412.21</ele>
        <time>2021-03-23T15:18:33Z</time>
      </trkpt>
      <trkpt lat="47.83728" lon="5.09048">
        <ele>412.54</ele>
        <time>2021-03-23T15:18:49Z</time>
      </trkpt>
      <trkpt lat="47.83742" lon="5.09061">
        <ele>412.5</ele>
        <time>2021-03-23T15:19:03Z</time>
      </trkpt>
      <trkpt lat="47.83759" lon="5.0908">
        <ele>412.92</ele>
        <time>2021-03-23T15:19:20Z</time>
      </trkpt>
      <trkpt lat="47.83778" lon="5.09101">
        <ele>413.53</ele>
        <time>2021-03-23T15:19:40Z</time>
      </trkpt>
      <trkpt lat="47.83789" lon="5.09119">
        <ele>413.91</ele>
        <time>2021-03-23T15:19:53Z</time>
      </trkpt>
      <trkpt lat="47.83807" lon="5.09144">
        <ele>414.66</ele>
        <time>2021-03-23T15:20:14Z</time>
      </trkpt>
      <trkpt lat="47.8382" lon="5.09156">
        <ele>414.53</ele>
        <time>2021-03-23T15:20:27Z</time>
      </trkpt>
      <trkpt lat="47.83834" lon="5.09174">
        <ele>414.23</ele>
        <time>2021-03-23T15:20:43Z</time>
      </trkpt>
      <trkpt lat="47.83845" lon="5.0919">
        <ele>414.61</ele>
        <time>2021-03-23T15:21:01Z</time>
      </trkpt>
      <trkpt lat="47.83857" lon="5.0921">
        <ele>414.79</ele>
        <time>2021-03-23T15:21:21Z</time>
      </trkpt>
      <trkpt lat="47.83862" lon="5.09219">
        <ele>415.6</ele>
        <time>2021-03-23T15:21:39Z</time>
      </trkpt>
      <trkpt lat="47.83861" lon="5.09222">
        <ele>415.84</ele>
        <time>2021-03-23T15:22:14Z</time>
      </trkpt>
      <trkpt lat="47.83859" lon="5.09225">
        <ele>415.99</ele>
        <time>2021-03-23T15:22:32Z</time>
      </trkpt>
      <trkpt lat="47.83845" lon="5.09238">
        <ele>418.87</ele>
        <time>2021-03-23T15:22:54Z</time>
      </trkpt>
      <trkpt lat="47.83834" lon="5.09253">
        <ele>422.03</ele>
        <time>2021-03-23T15:23:13Z</time>
      </trkpt>
      <trkpt lat="47.83824" lon="5.09262">
        <ele>425.09</ele>
        <time>2021-03-23T15:23:31Z</time>
      </trkpt>
      <trkpt lat="47.83815" lon="5.09272">
        <ele>427.7</ele>
        <time>2021-03-23T15:23:52Z</time>
      </trkpt>
      <trkpt lat="47.83814" lon="5.09275">
        <ele>427.81</ele>
        <time>2021-03-23T15:24:17Z</time>
      </trkpt>
      <trkpt lat="47.83809" lon="5.09287">
        <ele>429.37</ele>
        <time>2021-03-23T15:24:37Z</time>
      </trkpt>
      <trkpt lat="47.83806" lon="5.09292">
        <ele>432.42</ele>
        <time>2021-03-23T15:24:55Z</time>
      </trkpt>
      <trkpt lat="47.83799" lon="5.09298">
        <ele>434.72</ele>
        <time>2021-03-23T15:25:18Z</time>
      </trkpt>
      <trkpt lat="47.8379" lon="5.09304">
        <ele>437.6</ele>
        <time>2021-03-23T15:25:41Z</time>
      </trkpt>
      <trkpt lat="47.83784" lon="5.09312">
        <ele>440.74</ele>
        <time>2021-03-23T15:25:59Z</time>
      </trkpt>
      <trkpt lat="47.83784" lon="5.09315">
        <ele>441.9</ele>
        <time>2021-03-23T15:26:20Z</time>
      </trkpt>
      <trkpt lat="47.83776" lon="5.09321">
        <ele>442.71</ele>
        <time>2021-03-23T15:26:42Z</time>
      </trkpt>
      <trkpt lat="47.83766" lon="5.09332">
        <ele>445.05</ele>
        <time>2021-03-23T15:27:00Z</time>
      </trkpt>
      <trkpt lat="47.83755" lon="5.09344">
        <ele>446.42</ele>
        <time>2021-03-23T15:27:20Z</time>
      </trkpt>
      <trkpt lat="47.83739" lon="5.09362">
        <ele>447.62</ele>
        <time>2021-03-23T15:27:40Z</time>
      </trkpt>
      <trkpt lat="47.8372" lon="5.09382">
        <ele>449.06</ele>
        <time>2021-03-23T15:28:01Z</time>
      </trkpt>
      <trkpt lat="47.83705" lon="5.09401">
        <ele>449.96</ele>
        <time>2021-03-23T15:28:19Z</time>
      </trkpt>
      <trkpt lat="47.83686" lon="5.09421">
        <ele>451.15</ele>
        <time>2021-03-23T15:28:41Z</time>
      </trkpt>
      <trkpt lat="47.83665" lon="5.09443">
        <ele>452.25</ele>
        <time>2021-03-23T15:29:02Z</time>
      </trkpt>
      <trkpt lat="47.8365" lon="5.09462">
        <ele>453.04</ele>
        <time>2021-03-23T15:29:19Z</time>
      </trkpt>
      <trkpt lat="47.83626" lon="5.09489">
        <ele>453.34</ele>
        <time>2021-03-23T15:29:41Z</time>
      </trkpt>
      <trkpt lat="47.83606" lon="5.09507">
        <ele>453.68</ele>
        <time>2021-03-23T15:30:01Z</time>
      </trkpt>
      <trkpt lat="47.83587" lon="5.09528">
        <ele>454.11</ele>
        <time>2021-03-23T15:30:20Z</time>
      </trkpt>
      <trkpt lat="47.83571" lon="5.09551">
        <ele>454.14</ele>
        <time>2021-03-23T15:30:39Z</time>
      </trkpt>
      <trkpt lat="47.83567" lon="5.09559">
        <ele>454.09</ele>
        <time>2021-03-23T15:30:55Z</time>
      </trkpt>
      <trkpt lat="47.83562" lon="5.09568">
        <ele>454.11</ele>
        <time>2021-03-23T15:31:07Z</time>
      </trkpt>
      <trkpt lat="47.8356" lon="5.0957">
        <ele>454.07</ele>
        <time>2021-03-23T15:31:09Z</time>
      </trkpt>
      <trkpt lat="47.83559" lon="5.09586">
        <ele>454.13</ele>
        <time>2021-03-23T15:31:24Z</time>
      </trkpt>
      <trkpt lat="47.83558" lon="5.09586">
        <ele>453.43</ele>
        <time>2021-03-23T15:31:41Z</time>
      </trkpt>
      <trkpt lat="47.83558" lon="5.09596">
        <ele>454.4</ele>
        <time>2021-03-23T15:31:59Z</time>
      </trkpt>
      <trkpt lat="47.83558" lon="5.09597">
        <ele>454.38</ele>
        <time>2021-03-23T15:32:00Z</time>
      </trkpt>
      <trkpt lat="47.83564" lon="5.09616">
        <ele>454.7</ele>
        <time>2021-03-23T15:32:12Z</time>
      </trkpt>
      <trkpt lat="47.83567" lon="5.09626">
        <ele>454.93</ele>
        <time>2021-03-23T15:32:20Z</time>
      </trkpt>
      <trkpt lat="47.83574" lon="5.09646">
        <ele>455.16</ele>
        <time>2021-03-23T15:32:32Z</time>
      </trkpt>
      <trkpt lat="47.83577" lon="5.09656">
        <ele>455.3</ele>
        <time>2021-03-23T15:32:38Z</time>
      </trkpt>
      <trkpt lat="47.83581" lon="5.09664">
        <ele>455.54</ele>
        <time>2021-03-23T15:32:43Z</time>
      </trkpt>
      <trkpt lat="47.83588" lon="5.09682">
        <ele>455.86</ele>
        <time>2021-03-23T15:32:57Z</time>
      </trkpt>
      <trkpt lat="47.83606" lon="5.09704">
        <ele>456.06</ele>
        <time>2021-03-23T15:33:17Z</time>
      </trkpt>
      <trkpt lat="47.83621" lon="5.09725">
        <ele>456.86</ele>
        <time>2021-03-23T15:33:33Z</time>
      </trkpt>
      <trkpt lat="47.83633" lon="5.09748">
        <ele>457.16</ele>
        <time>2021-03-23T15:33:49Z</time>
      </trkpt>
      <trkpt lat="47.83644" lon="5.09768">
        <ele>457.32</ele>
        <time>2021-03-23T15:34:02Z</time>
      </trkpt>
      <trkpt lat="47.83656" lon="5.09792">
        <ele>457.31</ele>
        <time>2021-03-23T15:34:17Z</time>
      </trkpt>
      <trkpt lat="47.83656" lon="5.09793">
        <ele>457.33</ele>
        <time>2021-03-23T15:34:18Z</time>
      </trkpt>
      <trkpt lat="47.83667" lon="5.09818">
        <ele>457.58</ele>
        <time>2021-03-23T15:34:33Z</time>
      </trkpt>
      <trkpt lat="47.83676" lon="5.09836">
        <ele>457.44</ele>
        <time>2021-03-23T15:34:45Z</time>
      </trkpt>
      <trkpt lat="47.83687" lon="5.09857">
        <ele>457.12</ele>
        <time>2021-03-23T15:34:58Z</time>
      </trkpt>
      <trkpt lat="47.83688" lon="5.09861">
        <ele>457.06</ele>
        <time>2021-03-23T15:35:00Z</time>
      </trkpt>
      <trkpt lat="47.83697" lon="5.09879">
        <ele>456.97</ele>
        <time>2021-03-23T15:35:11Z</time>
      </trkpt>
      <trkpt lat="47.8371" lon="5.09901">
        <ele>456.8</ele>
        <time>2021-03-23T15:35:25Z</time>
      </trkpt>
      <trkpt lat="47.83722" lon="5.09928">
        <ele>456.71</ele>
        <time>2021-03-23T15:35:41Z</time>
      </trkpt>
      <trkpt lat="47.83725" lon="5.09933">
        <ele>456.63</ele>
        <time>2021-03-23T15:35:44Z</time>
      </trkpt>
      <trkpt lat="47.83733" lon="5.09955">
        <ele>456.47</ele>
        <time>2021-03-23T15:35:58Z</time>
      </trkpt>
      <trkpt lat="47.83745" lon="5.0998">
        <ele>456.37</ele>
        <time>2021-03-23T15:36:12Z</time>
      </trkpt>
      <trkpt lat="47.83755" lon="5.10008">
        <ele>456.12</ele>
        <time>2021-03-23T15:36:27Z</time>
      </trkpt>
      <trkpt lat="47.83764" lon="5.10032">
        <ele>456.05</ele>
        <time>2021-03-23T15:36:42Z</time>
      </trkpt>
      <trkpt lat="47.83782" lon="5.10063">
        <ele>456.04</ele>
        <time>2021-03-23T15:37:01Z</time>
      </trkpt>
      <trkpt lat="47.83797" lon="5.10095">
        <ele>455.84</ele>
        <time>2021-03-23T15:37:23Z</time>
      </trkpt>
      <trkpt lat="47.83809" lon="5.10117">
        <ele>455.78</ele>
        <time>2021-03-23T15:37:38Z</time>
      </trkpt>
      <trkpt lat="47.83811" lon="5.1012">
        <ele>455.72</ele>
        <time>2021-03-23T15:37:42Z</time>
      </trkpt>
      <trkpt lat="47.83813" lon="5.10123">
        <ele>455.7</ele>
        <time>2021-03-23T15:37:44Z</time>
      </trkpt>
      <trkpt lat="47.83827" lon="5.10149">
        <ele>455.56</ele>
        <time>2021-03-23T15:38:01Z</time>
      </trkpt>
      <trkpt lat="47.83841" lon="5.10173">
        <ele>455.32</ele>
        <time>2021-03-23T15:38:17Z</time>
      </trkpt>
      <trkpt lat="47.83855" lon="5.10193">
        <ele>455.19</ele>
        <time>2021-03-23T15:38:32Z</time>
      </trkpt>
      <trkpt lat="47.8387" lon="5.1022">
        <ele>455.16</ele>
        <time>2021-03-23T15:38:49Z</time>
      </trkpt>
      <trkpt lat="47.83883" lon="5.10245">
        <ele>454.49</ele>
        <time>2021-03-23T15:39:05Z</time>
      </trkpt>
      <trkpt lat="47.83897" lon="5.10273">
        <ele>453.96</ele>
        <time>2021-03-23T15:39:23Z</time>
      </trkpt>
      <trkpt lat="47.83908" lon="5.10298">
        <ele>454.06</ele>
        <time>2021-03-23T15:39:38Z</time>
      </trkpt>
      <trkpt lat="47.83917" lon="5.10319">
        <ele>453.9</ele>
        <time>2021-03-23T15:39:51Z</time>
      </trkpt>
      <trkpt lat="47.8393" lon="5.10345">
        <ele>453.81</ele>
        <time>2021-03-23T15:40:08Z</time>
      </trkpt>
      <trkpt lat="47.83942" lon="5.10369">
        <ele>453.63</ele>
        <time>2021-03-23T15:40:23Z</time>
      </trkpt>
      <trkpt lat="47.83954" lon="5.10394">
        <ele>453.6</ele>
        <time>2021-03-23T15:40:38Z</time>
      </trkpt>
      <trkpt lat="47.83954" lon="5.10396">
        <ele>453.6</ele>
        <time>2021-03-23T15:40:39Z</time>
      </trkpt>
      <trkpt lat="47.83957" lon="5.10409">
        <ele>453.54</ele>
        <time>2021-03-23T15:40:46Z</time>
      </trkpt>
      <trkpt lat="47.83949" lon="5.10429">
        <ele>453.31</ele>
        <time>2021-03-23T15:40:57Z</time>
      </trkpt>
      <trkpt lat="47.83945" lon="5.10432">
        <ele>453.38</ele>
        <time>2021-03-23T15:41:01Z</time>
      </trkpt>
      <trkpt lat="47.8394" lon="5.10432">
        <ele>453.62</ele>
        <time>2021-03-23T15:41:04Z</time>
      </trkpt>
      <trkpt lat="47.8393" lon="5.10436">
        <ele>454.19</ele>
        <time>2021-03-23T15:41:19Z</time>
      </trkpt>
      <trkpt lat="47.83928" lon="5.10438">
        <ele>454.09</ele>
        <time>2021-03-23T15:41:21Z</time>
      </trkpt>
      <trkpt lat="47.83925" lon="5.10439">
        <ele>454.06</ele>
        <time>2021-03-23T15:41:24Z</time>
      </trkpt>
      <trkpt lat="47.839" lon="5.1045">
        <ele>454.63</ele>
        <time>2021-03-23T15:41:44Z</time>
      </trkpt>
      <trkpt lat="47.83884" lon="5.10458">
        <ele>454.59</ele>
        <time>2021-03-23T15:41:58Z</time>
      </trkpt>
      <trkpt lat="47.83879" lon="5.10461">
        <ele>454.64</ele>
        <time>2021-03-23T15:42:02Z</time>
      </trkpt>
      <trkpt lat="47.83859" lon="5.10473">
        <ele>455.05</ele>
        <time>2021-03-23T15:42:19Z</time>
      </trkpt>
      <trkpt lat="47.83827" lon="5.10481">
        <ele>454.45</ele>
        <time>2021-03-23T15:42:42Z</time>
      </trkpt>
      <trkpt lat="47.83799" lon="5.10483">
        <ele>454.52</ele>
        <time>2021-03-23T15:43:00Z</time>
      </trkpt>
      <trkpt lat="47.83778" lon="5.10484">
        <ele>454.31</ele>
        <time>2021-03-23T15:43:15Z</time>
      </trkpt>
      <trkpt lat="47.83763" lon="5.10485">
        <ele>453.92</ele>
        <time>2021-03-23T15:43:26Z</time>
      </trkpt>
      <trkpt lat="47.83762" lon="5.10485">
        <ele>453.91</ele>
        <time>2021-03-23T15:43:27Z</time>
      </trkpt>
      <trkpt lat="47.83757" lon="5.10486">
        <ele>453.76</ele>
        <time>2021-03-23T15:43:30Z</time>
      </trkpt>
      <trkpt lat="47.83748" lon="5.10485">
        <ele>453.46</ele>
        <time>2021-03-23T15:43:36Z</time>
      </trkpt>
      <trkpt lat="47.83743" lon="5.10485">
        <ele>453.48</ele>
        <time>2021-03-23T15:43:39Z</time>
      </trkpt>
      <trkpt lat="47.83726" lon="5.10485">
        <ele>453.14</ele>
        <time>2021-03-23T15:43:50Z</time>
      </trkpt>
      <trkpt lat="47.83707" lon="5.10485">
        <ele>452.8</ele>
        <time>2021-03-23T15:44:03Z</time>
      </trkpt>
      <trkpt lat="47.8369" lon="5.10491">
        <ele>452.15</ele>
        <time>2021-03-23T15:44:16Z</time>
      </trkpt>
      <trkpt lat="47.83687" lon="5.10495">
        <ele>452.14</ele>
        <time>2021-03-23T15:44:20Z</time>
      </trkpt>
      <trkpt lat="47.83679" lon="5.10506">
        <ele>451.48</ele>
        <time>2021-03-23T15:44:35Z</time>
      </trkpt>
      <trkpt lat="47.8367" lon="5.1051">
        <ele>451.08</ele>
        <time>2021-03-23T15:44:50Z</time>
      </trkpt>
      <trkpt lat="47.83667" lon="5.1051">
        <ele>450.85</ele>
        <time>2021-03-23T15:44:55Z</time>
      </trkpt>
      <trkpt lat="47.83661" lon="5.10509">
        <ele>450.66</ele>
        <time>2021-03-23T15:45:00Z</time>
      </trkpt>
      <trkpt lat="47.83652" lon="5.10506">
        <ele>450.25</ele>
        <time>2021-03-23T15:45:11Z</time>
      </trkpt>
      <trkpt lat="47.83651" lon="5.10505">
        <ele>450.34</ele>
        <time>2021-03-23T15:45:13Z</time>
      </trkpt>
      <trkpt lat="47.83648" lon="5.10499">
        <ele>450.22</ele>
        <time>2021-03-23T15:45:18Z</time>
      </trkpt>
      <trkpt lat="47.83638" lon="5.10481">
        <ele>449.85</ele>
        <time>2021-03-23T15:45:28Z</time>
      </trkpt>
      <trkpt lat="47.83638" lon="5.10479">
        <ele>449.79</ele>
        <time>2021-03-23T15:45:29Z</time>
      </trkpt>
      <trkpt lat="47.83636" lon="5.10476">
        <ele>449.73</ele>
        <time>2021-03-23T15:45:31Z</time>
      </trkpt>
      <trkpt lat="47.83632" lon="5.10468">
        <ele>449.52</ele>
        <time>2021-03-23T15:45:36Z</time>
      </trkpt>
      <trkpt lat="47.83629" lon="5.10462">
        <ele>449.47</ele>
        <time>2021-03-23T15:45:40Z</time>
      </trkpt>
      <trkpt lat="47.83628" lon="5.10458">
        <ele>449.46</ele>
        <time>2021-03-23T15:45:42Z</time>
      </trkpt>
      <trkpt lat="47.83619" lon="5.1044">
        <ele>449.15</ele>
        <time>2021-03-23T15:45:53Z</time>
      </trkpt>
      <trkpt lat="47.83612" lon="5.10433">
        <ele>448.91</ele>
        <time>2021-03-23T15:46:02Z</time>
      </trkpt>
      <trkpt lat="47.8361" lon="5.10431">
        <ele>448.76</ele>
        <time>2021-03-23T15:46:05Z</time>
      </trkpt>
      <trkpt lat="47.83597" lon="5.10428">
        <ele>448</ele>
        <time>2021-03-23T15:46:15Z</time>
      </trkpt>
      <trkpt lat="47.83578" lon="5.1042">
        <ele>447.02</ele>
        <time>2021-03-23T15:46:27Z</time>
      </trkpt>
      <trkpt lat="47.83562" lon="5.10424">
        <ele>446.22</ele>
        <time>2021-03-23T15:46:39Z</time>
      </trkpt>
      <trkpt lat="47.83547" lon="5.10427">
        <ele>445.4</ele>
        <time>2021-03-23T15:46:52Z</time>
      </trkpt>
      <trkpt lat="47.83528" lon="5.10434">
        <ele>444.64</ele>
        <time>2021-03-23T15:47:07Z</time>
      </trkpt>
      <trkpt lat="47.8352" lon="5.10438">
        <ele>444.4</ele>
        <time>2021-03-23T15:47:14Z</time>
      </trkpt>
      <trkpt lat="47.83515" lon="5.10448">
        <ele>444.75</ele>
        <time>2021-03-23T15:47:21Z</time>
      </trkpt>
      <trkpt lat="47.83509" lon="5.10465">
        <ele>445.17</ele>
        <time>2021-03-23T15:47:36Z</time>
      </trkpt>
      <trkpt lat="47.83503" lon="5.10463">
        <ele>445.51</ele>
        <time>2021-03-23T15:47:51Z</time>
      </trkpt>
      <trkpt lat="47.83502" lon="5.10455">
        <ele>445.67</ele>
        <time>2021-03-23T15:48:41Z</time>
      </trkpt>
      <trkpt lat="47.83502" lon="5.10456">
        <ele>445.69</ele>
        <time>2021-03-23T15:48:43Z</time>
      </trkpt>
    </trkseg>
  </trk>
</gpx>